Time,TemperatureF,DewpointF,PressureIn,WindDirection,WindDirectionDegrees,WindSpeedMPH,WindSpeedGustMPH,Humidity,HourlyPrecipIn,Conditions,Clouds,dailyrainin,SoftwareType,DateUTC
2013-03-21 00:00:00,20.3,15.4,29.00,NE,53,7.6,7.6,81,0.00,,,0.00,VWS V14.01,2013-03-21 04:00:00,
2013-03-21 00:05:00,20.1,15.5,29.00,ENE,77,5.4,5.4,82,0.00,,,0.00,VWS V14.01,2013-03-21 04:05:00,
2013-03-21 00:10:00,20.1,15.5,29.00,ENE,73,10.1,10.1,82,0.00,,,0.00,VWS V14.01,2013-03-21 04:10:00,
2013-03-21 00:15:00,19.9,15.6,29.00,ENE,57,4.9,4.9,83,0.00,,,0.00,VWS V14.01,2013-03-21 04:15:00,
2013-03-21 00:20:00,19.9,15.9,29.00,NE,46,5.8,5.8,84,0.00,,,0.00,VWS V14.01,2013-03-21 04:20:00,
2013-03-21 00:25:00,19.9,15.9,29.00,NNE,12,3.6,3.6,84,0.00,,,0.00,VWS V14.01,2013-03-21 04:25:00,
2013-03-21 00:30:00,20.1,16.6,29.00,NE,47,5.8,5.8,86,0.00,,,0.00,VWS V14.01,2013-03-21 04:30:00,
2013-03-21 00:31:00,20.1,16.6,29.00,NE,53,5.4,5.8,86,0.00,,,0.00,VWS V14.01,2013-03-21 04:31:00,
2013-03-21 00:35:00,19.9,16.7,29.00,ENE,75,5.4,6.3,87,0.00,,,0.00,VWS V14.01,2013-03-21 04:35:00,
2013-03-21 00:36:00,19.9,16.7,29.00,NE,49,5.4,5.4,87,0.00,,,0.00,VWS V14.01,2013-03-21 04:36:00,
2013-03-21 00:40:00,20.1,17.1,29.00,ENE,64,5.4,5.4,88,0.00,,,0.00,VWS V14.01,2013-03-21 04:40:00,
2013-03-21 00:41:00,20.1,17.4,29.00,ENE,58,4.0,4.0,89,0.00,,,0.00,VWS V14.01,2013-03-21 04:41:00,
2013-03-21 00:45:00,19.9,17.2,29.00,NE,52,3.6,4.0,89,0.00,,,0.00,VWS V14.01,2013-03-21 04:45:00,
2013-03-21 00:46:00,19.9,17.2,29.00,NE,52,3.6,3.6,89,0.00,,,0.00,VWS V14.01,2013-03-21 04:46:00,
2013-03-21 00:50:00,19.8,17.0,29.00,ENE,58,3.1,3.1,89,0.00,,,0.00,VWS V14.01,2013-03-21 04:50:00,
2013-03-21 00:52:00,19.8,17.0,29.00,ENE,62,4.0,4.0,89,0.00,,,0.00,VWS V14.01,2013-03-21 04:52:00,
2013-03-21 00:55:00,19.8,17.0,29.00,NE,46,4.9,4.9,89,0.00,,,0.00,VWS V14.01,2013-03-21 04:55:00,
2013-03-21 00:56:00,19.8,17.0,29.00,NE,44,8.1,8.1,89,0.00,,,0.00,VWS V14.01,2013-03-21 04:56:00,
2013-03-21 00:57:00,19.8,17.0,29.00,ENE,63,6.3,6.3,89,0.00,,,0.00,VWS V14.01,2013-03-21 04:57:00,
2013-03-21 01:00:00,19.8,17.0,29.00,ENE,63,6.3,6.3,89,0.00,,,0.00,VWS V14.01,2013-03-21 05:00:00,
2013-03-21 01:01:00,19.8,17.0,29.00,ENE,63,6.3,6.3,89,0.00,,,0.00,VWS V14.01,2013-03-21 05:01:00,
2013-03-21 01:02:00,19.8,17.0,29.00,ENE,65,4.9,6.3,89,0.00,,,0.00,VWS V14.01,2013-03-21 05:02:00,
2013-03-21 01:05:00,19.8,16.8,29.00,ENE,63,3.6,3.6,88,0.00,,,0.00,VWS V14.01,2013-03-21 05:05:00,
2013-03-21 01:06:00,19.8,16.8,29.00,ENE,63,3.6,3.6,88,0.00,,,0.00,VWS V14.01,2013-03-21 05:06:00,
2013-03-21 01:07:00,19.8,16.5,29.00,ENE,66,3.6,3.6,87,0.00,,,0.00,VWS V14.01,2013-03-21 05:07:00,
2013-03-21 01:10:00,19.8,16.3,29.00,ENE,59,3.1,3.6,86,0.00,,,0.00,VWS V14.01,2013-03-21 05:10:00,
2013-03-21 01:11:00,19.8,16.3,29.00,ENE,59,3.1,3.6,86,0.00,,,0.00,VWS V14.01,2013-03-21 05:11:00,
2013-03-21 01:12:00,19.8,16.3,29.00,ENE,59,3.1,3.1,86,0.00,,,0.00,VWS V14.01,2013-03-21 05:12:00,
2013-03-21 01:15:00,19.8,16.3,29.00,NE,54,5.4,5.4,86,0.00,,,0.00,VWS V14.01,2013-03-21 05:15:00,
2013-03-21 01:16:00,19.8,16.3,29.00,NE,54,5.4,5.4,86,0.00,,,0.00,VWS V14.01,2013-03-21 05:16:00,
2013-03-21 01:17:00,19.8,16.3,29.00,NE,53,7.6,7.6,86,0.00,,,0.00,VWS V14.01,2013-03-21 05:17:00,
2013-03-21 01:21:00,19.9,16.2,29.00,ENE,59,5.4,5.4,85,0.00,,,0.00,VWS V14.01,2013-03-21 05:21:00,
2013-03-21 01:22:00,19.9,16.2,29.00,ENE,59,5.4,5.4,85,0.00,,,0.00,VWS V14.01,2013-03-21 05:22:00,
2013-03-21 01:23:00,19.9,16.2,29.00,ENE,59,5.4,5.4,85,0.00,,,0.00,VWS V14.01,2013-03-21 05:23:00,
2013-03-21 01:26:00,19.9,16.2,29.00,NE,50,2.7,2.7,85,0.00,,,0.00,VWS V14.01,2013-03-21 05:26:00,
2013-03-21 01:27:00,19.9,16.2,29.00,NE,50,2.7,2.7,85,0.00,,,0.00,VWS V14.01,2013-03-21 05:27:00,
2013-03-21 01:28:00,19.9,16.2,29.00,NE,50,2.7,2.7,85,0.00,,,0.00,VWS V14.01,2013-03-21 05:28:00,
2013-03-21 01:31:00,19.8,16.0,29.00,ENE,70,3.1,3.1,85,0.00,,,0.00,VWS V14.01,2013-03-21 05:31:00,
2013-03-21 01:32:00,19.8,16.0,29.00,NE,36,3.6,5.8,85,0.00,,,0.00,VWS V14.01,2013-03-21 05:32:00,
2013-03-21 01:33:00,19.8,16.0,29.00,ENE,65,5.4,5.4,85,0.00,,,0.00,VWS V14.01,2013-03-21 05:33:00,
2013-03-21 01:36:00,19.8,16.0,29.00,ENE,71,2.2,2.2,85,0.00,,,0.00,VWS V14.01,2013-03-21 05:36:00,
2013-03-21 01:37:00,19.8,16.0,29.00,ENE,64,4.0,4.0,85,0.00,,,0.00,VWS V14.01,2013-03-21 05:37:00,
2013-03-21 01:38:00,19.8,16.0,29.00,ENE,64,4.0,4.0,85,0.00,,,0.00,VWS V14.01,2013-03-21 05:38:00,
2013-03-21 01:42:00,19.6,15.5,29.00,ENE,69,6.3,6.3,84,0.00,,,0.00,VWS V14.01,2013-03-21 05:42:00,
2013-03-21 01:43:00,19.6,15.5,29.00,ENE,77,3.6,3.6,84,0.00,,,0.00,VWS V14.01,2013-03-21 05:43:00,
2013-03-21 01:47:00,19.6,15.5,28.97,NE,50,3.6,3.6,84,0.00,,,0.00,VWS V14.01,2013-03-21 05:47:00,
2013-03-21 01:48:00,19.6,15.5,28.97,NE,50,3.6,3.6,84,0.00,,,0.00,VWS V14.01,2013-03-21 05:48:00,
2013-03-21 01:52:00,19.6,15.5,29.00,NE,56,3.6,3.6,84,0.00,,,0.00,VWS V14.01,2013-03-21 05:52:00,
2013-03-21 01:53:00,19.6,15.5,29.00,NE,37,3.6,3.6,84,0.00,,,0.00,VWS V14.01,2013-03-21 05:53:00,
2013-03-21 01:54:00,19.6,15.5,29.00,NE,37,3.6,3.6,84,0.00,,,0.00,VWS V14.01,2013-03-21 05:54:00,
2013-03-21 01:57:00,19.6,15.8,29.00,ENE,58,3.1,3.1,85,0.00,,,0.00,VWS V14.01,2013-03-21 05:57:00,
2013-03-21 01:58:00,19.6,15.8,29.00,NE,37,4.9,4.9,85,0.00,,,0.00,VWS V14.01,2013-03-21 05:58:00,
2013-03-21 02:02:00,19.6,15.8,29.00,East,81,5.4,5.4,85,0.00,,,0.00,VWS V14.01,2013-03-21 06:02:00,
2013-03-21 02:03:00,19.6,15.8,29.00,East,81,5.4,5.4,85,0.00,,,0.00,VWS V14.01,2013-03-21 06:03:00,
2013-03-21 02:04:00,19.6,15.8,29.00,NE,54,2.7,5.4,85,0.00,,,0.00,VWS V14.01,2013-03-21 06:04:00,
2013-03-21 02:07:00,19.6,15.8,29.00,ENE,71,5.4,5.4,85,0.00,,,0.00,VWS V14.01,2013-03-21 06:07:00,
2013-03-21 02:08:00,19.6,15.8,29.00,ENE,65,5.4,6.7,85,0.00,,,0.00,VWS V14.01,2013-03-21 06:08:00,
2013-03-21 02:09:00,19.6,15.8,29.00,ENE,65,5.4,5.4,85,0.00,,,0.00,VWS V14.01,2013-03-21 06:09:00,
2013-03-21 02:12:00,19.4,15.9,29.00,ENE,59,6.3,6.3,86,0.00,,,0.00,VWS V14.01,2013-03-21 06:12:00,
2013-03-21 02:14:00,19.4,15.9,29.00,ENE,72,4.9,4.9,86,0.00,,,0.00,VWS V14.01,2013-03-21 06:14:00,
2013-03-21 02:17:00,19.4,16.2,29.00,ENE,71,5.4,5.4,87,0.00,,,0.00,VWS V14.01,2013-03-21 06:17:00,
2013-03-21 02:19:00,19.4,16.2,29.00,ENE,71,5.4,5.4,87,0.00,,,0.00,VWS V14.01,2013-03-21 06:19:00,
2013-03-21 02:23:00,19.4,15.9,29.00,ENE,72,3.1,3.1,86,0.00,,,0.00,VWS V14.01,2013-03-21 06:23:00,
2013-03-21 02:24:00,19.4,15.9,29.00,ENE,61,4.9,4.9,86,0.00,,,0.00,VWS V14.01,2013-03-21 06:24:00,
2013-03-21 02:28:00,19.4,16.2,29.00,East,80,3.1,3.1,87,0.00,,,0.00,VWS V14.01,2013-03-21 06:28:00,
2013-03-21 02:29:00,19.4,16.2,29.00,East,80,3.1,3.1,87,0.00,,,0.00,VWS V14.01,2013-03-21 06:29:00,
2013-03-21 02:30:00,19.4,16.2,29.00,East,80,3.1,3.1,87,0.00,,,0.00,VWS V14.01,2013-03-21 06:30:00,
2013-03-21 02:33:00,19.4,16.2,29.00,NE,55,3.6,3.6,87,0.00,,,0.00,VWS V14.01,2013-03-21 06:33:00,
2013-03-21 02:34:00,19.2,16.0,29.00,ENE,63,5.4,5.4,87,0.00,,,0.00,VWS V14.01,2013-03-21 06:34:00,
2013-03-21 02:35:00,19.2,16.0,29.00,ENE,60,3.1,5.4,87,0.00,,,0.00,VWS V14.01,2013-03-21 06:35:00,
2013-03-21 02:38:00,19.2,16.0,29.00,ENE,60,3.1,3.1,87,0.00,,,0.00,VWS V14.01,2013-03-21 06:38:00,
2013-03-21 02:39:00,19.2,16.3,29.00,NE,38,3.1,3.1,88,0.00,,,0.00,VWS V14.01,2013-03-21 06:39:00,
2013-03-21 02:40:00,19.2,16.3,29.00,NE,38,3.1,3.1,88,0.00,,,0.00,VWS V14.01,2013-03-21 06:40:00,
2013-03-21 02:43:00,19.2,16.3,29.00,ENE,65,4.9,4.9,88,0.00,,,0.00,VWS V14.01,2013-03-21 06:43:00,
2013-03-21 02:44:00,19.2,16.3,29.00,NE,54,2.7,2.7,88,0.00,,,0.00,VWS V14.01,2013-03-21 06:44:00,
2013-03-21 02:45:00,19.2,16.3,29.00,NE,37,3.1,3.1,88,0.00,,,0.00,VWS V14.01,2013-03-21 06:45:00,
2013-03-21 02:48:00,19.0,16.1,29.00,NE,35,4.0,5.8,88,0.00,,,0.00,VWS V14.01,2013-03-21 06:48:00,
2013-03-21 02:50:00,18.9,15.9,29.00,ENE,64,5.4,5.4,88,0.00,,,0.00,VWS V14.01,2013-03-21 06:50:00,
2013-03-21 02:53:00,18.9,15.9,28.97,NE,48,2.7,4.9,88,0.00,,,0.00,VWS V14.01,2013-03-21 06:53:00,
2013-03-21 02:55:00,18.9,15.9,28.97,NE,48,2.7,2.7,88,0.00,,,0.00,VWS V14.01,2013-03-21 06:55:00,
2013-03-21 02:58:00,18.9,15.9,28.97,NE,52,3.6,3.6,88,0.00,,,0.00,VWS V14.01,2013-03-21 06:58:00,
2013-03-21 03:00:00,18.9,15.9,28.97,NE,40,4.9,4.9,88,0.00,,,0.00,VWS V14.01,2013-03-21 07:00:00,
2013-03-21 03:03:00,18.5,14.8,28.97,ENE,71,8.3,8.3,85,0.00,,,0.00,VWS V14.01,2013-03-21 07:03:00,
2013-03-21 03:05:00,18.3,14.3,28.97,ENE,71,8.3,8.3,84,0.00,,,0.00,VWS V14.01,2013-03-21 07:05:00,
2013-03-21 03:08:00,18.3,14.3,28.97,ENE,73,4.0,4.0,84,0.00,,,0.00,VWS V14.01,2013-03-21 07:08:00,
2013-03-21 03:10:00,18.3,14.3,28.97,NE,44,5.4,5.4,84,0.00,,,0.00,VWS V14.01,2013-03-21 07:10:00,
2013-03-21 03:13:00,18.3,14.3,28.97,ENE,68,5.4,5.4,84,0.00,,,0.00,VWS V14.01,2013-03-21 07:13:00,
2013-03-21 03:15:00,18.3,14.0,28.97,ENE,78,3.6,5.4,83,0.00,,,0.00,VWS V14.01,2013-03-21 07:15:00,
2013-03-21 03:18:00,18.3,14.0,28.97,ENE,62,3.6,6.3,83,0.00,,,0.00,VWS V14.01,2013-03-21 07:18:00,
2013-03-21 03:20:00,18.3,14.0,28.97,ENE,58,3.1,3.1,83,0.00,,,0.00,VWS V14.01,2013-03-21 07:20:00,
2013-03-21 03:21:00,18.3,14.0,28.97,ENE,62,4.0,4.0,83,0.00,,,0.00,VWS V14.01,2013-03-21 07:21:00,
2013-03-21 03:23:00,18.3,14.0,28.97,NE,52,3.1,4.0,83,0.00,,,0.00,VWS V14.01,2013-03-21 07:23:00,
2013-03-21 03:25:00,18.1,13.9,28.97,NE,37,3.6,3.6,83,0.00,,,0.00,VWS V14.01,2013-03-21 07:25:00,
2013-03-21 03:26:00,18.1,13.9,28.97,NE,37,3.6,3.6,83,0.00,,,0.00,VWS V14.01,2013-03-21 07:26:00,
2013-03-21 03:28:00,18.1,13.9,28.97,NNE,32,4.0,4.0,83,0.00,,,0.00,VWS V14.01,2013-03-21 07:28:00,
2013-03-21 03:30:00,18.1,13.9,28.97,ENE,68,2.2,4.0,83,0.00,,,0.00,VWS V14.01,2013-03-21 07:30:00,
2013-03-21 03:31:00,18.1,13.9,28.97,ENE,68,2.2,2.2,83,0.00,,,0.00,VWS V14.01,2013-03-21 07:31:00,
2013-03-21 03:34:00,18.1,13.9,28.97,ENE,69,3.1,3.1,83,0.00,,,0.00,VWS V14.01,2013-03-21 07:34:00,
2013-03-21 03:36:00,18.1,13.9,28.97,ENE,69,3.1,3.1,83,0.00,,,0.00,VWS V14.01,2013-03-21 07:36:00,
2013-03-21 03:39:00,18.1,14.1,28.97,NE,35,2.7,2.7,84,0.00,,,0.00,VWS V14.01,2013-03-21 07:39:00,
2013-03-21 03:41:00,18.1,14.1,28.97,ENE,65,3.6,3.6,84,0.00,,,0.00,VWS V14.01,2013-03-21 07:41:00,
2013-03-21 03:42:00,18.1,14.1,28.97,ENE,73,5.4,5.4,84,0.00,,,0.00,VWS V14.01,2013-03-21 07:42:00,
2013-03-21 03:44:00,18.1,14.1,28.97,NNE,14,5.8,5.8,84,0.00,,,0.00,VWS V14.01,2013-03-21 07:44:00,
2013-03-21 03:46:00,18.1,14.1,28.97,NE,43,3.6,3.6,84,0.00,,,0.00,VWS V14.01,2013-03-21 07:46:00,
2013-03-21 03:47:00,18.1,14.1,28.97,NE,43,3.6,3.6,84,0.00,,,0.00,VWS V14.01,2013-03-21 07:47:00,
2013-03-21 03:49:00,18.1,14.1,28.97,NE,43,3.6,3.6,84,0.00,,,0.00,VWS V14.01,2013-03-21 07:49:00,
2013-03-21 03:52:00,18.1,14.1,28.97,ENE,60,5.8,5.8,84,0.00,,,0.00,VWS V14.01,2013-03-21 07:52:00,
2013-03-21 03:54:00,18.1,14.1,28.97,NE,50,3.1,3.1,84,0.00,,,0.00,VWS V14.01,2013-03-21 07:54:00,
2013-03-21 03:57:00,18.0,13.7,28.97,NE,56,4.0,4.0,83,0.00,,,0.00,VWS V14.01,2013-03-21 07:57:00,
2013-03-21 03:59:00,18.0,13.7,28.97,ENE,71,2.7,2.7,83,0.00,,,0.00,VWS V14.01,2013-03-21 07:59:00,
2013-03-21 04:02:00,18.0,13.7,28.97,NE,47,2.7,2.7,83,0.00,,,0.00,VWS V14.01,2013-03-21 08:02:00,
2013-03-21 04:04:00,18.0,13.7,28.97,NE,45,5.4,5.4,83,0.00,,,0.00,VWS V14.01,2013-03-21 08:04:00,
2013-03-21 04:07:00,18.0,13.9,28.97,ENE,67,2.7,2.7,84,0.00,,,0.00,VWS V14.01,2013-03-21 08:07:00,
2013-03-21 04:09:00,18.0,13.9,28.97,NE,45,4.0,4.0,84,0.00,,,0.00,VWS V14.01,2013-03-21 08:09:00,
2013-03-21 04:12:00,18.0,13.9,28.97,NE,54,3.1,8.7,84,0.00,,,0.00,VWS V14.01,2013-03-21 08:12:00,
2013-03-21 04:14:00,18.0,13.9,28.97,ENE,59,3.6,3.6,84,0.00,,,0.00,VWS V14.01,2013-03-21 08:14:00,
2013-03-21 04:17:00,17.8,13.8,28.97,NNE,26,2.7,3.6,84,0.00,,,0.00,VWS V14.01,2013-03-21 08:17:00,
2013-03-21 04:19:00,17.8,13.8,28.97,NNE,19,3.1,4.9,84,0.00,,,0.00,VWS V14.01,2013-03-21 08:19:00,
2013-03-21 04:22:00,17.8,13.8,28.97,NNE,33,3.6,3.6,84,0.00,,,0.00,VWS V14.01,2013-03-21 08:22:00,
2013-03-21 04:23:00,17.8,13.8,28.97,NNE,33,3.6,3.6,84,0.00,,,0.00,VWS V14.01,2013-03-21 08:23:00,
2013-03-21 04:24:00,17.8,13.8,28.97,NE,55,3.6,3.6,84,0.00,,,0.00,VWS V14.01,2013-03-21 08:24:00,
2013-03-21 04:27:00,17.8,13.8,28.97,NE,37,3.6,3.6,84,0.00,,,0.00,VWS V14.01,2013-03-21 08:27:00,
2013-03-21 04:28:00,17.8,13.8,28.97,NE,37,3.6,3.6,84,0.00,,,0.00,VWS V14.01,2013-03-21 08:28:00,
2013-03-21 04:29:00,17.8,13.8,28.97,NE,37,3.6,3.6,84,0.00,,,0.00,VWS V14.01,2013-03-21 08:29:00,
2013-03-21 04:32:00,17.6,13.6,28.97,NE,37,3.6,3.6,84,0.00,,,0.00,VWS V14.01,2013-03-21 08:32:00,
2013-03-21 04:33:00,17.6,13.6,28.97,NE,37,3.6,3.6,84,0.00,,,0.00,VWS V14.01,2013-03-21 08:33:00,
2013-03-21 04:34:00,17.6,13.6,28.97,North,0,4.9,4.9,84,0.00,,,0.00,VWS V14.01,2013-03-21 08:34:00,
2013-03-21 04:38:00,17.6,13.6,28.97,NE,49,3.1,3.1,84,0.00,,,0.00,VWS V14.01,2013-03-21 08:38:00,
2013-03-21 04:39:00,17.6,13.9,28.97,ENE,57,4.0,4.0,85,0.00,,,0.00,VWS V14.01,2013-03-21 08:39:00,
2013-03-21 04:43:00,17.6,13.9,28.97,North,6,3.1,3.1,85,0.00,,,0.00,VWS V14.01,2013-03-21 08:43:00,
2013-03-21 04:44:00,17.6,13.9,28.97,NE,41,7.6,7.6,85,0.00,,,0.00,VWS V14.01,2013-03-21 08:44:00,
2013-03-21 04:48:00,17.6,14.4,28.97,NNE,24,5.8,6.3,87,0.00,,,0.00,VWS V14.01,2013-03-21 08:48:00,
2013-03-21 04:49:00,17.6,14.4,28.97,NNE,24,5.8,5.8,87,0.00,,,0.00,VWS V14.01,2013-03-21 08:49:00,
2013-03-21 04:53:00,17.4,14.2,28.97,NE,42,4.0,4.0,87,0.00,,,0.00,VWS V14.01,2013-03-21 08:53:00,
2013-03-21 04:55:00,17.4,14.2,28.97,NE,40,5.8,5.8,87,0.00,,,0.00,VWS V14.01,2013-03-21 08:55:00,
2013-03-21 04:58:00,17.2,14.3,28.97,NNE,33,6.3,6.3,88,0.00,,,0.00,VWS V14.01,2013-03-21 08:58:00,
2013-03-21 05:00:00,17.2,14.3,28.97,NE,38,3.6,3.6,88,0.00,,,0.00,VWS V14.01,2013-03-21 09:00:00,
2013-03-21 05:03:00,17.1,14.1,28.97,NE,43,5.4,5.4,88,0.00,,,0.00,VWS V14.01,2013-03-21 09:03:00,
2013-03-21 05:05:00,17.1,14.1,28.97,NE,43,5.4,5.4,88,0.00,,,0.00,VWS V14.01,2013-03-21 09:05:00,
2013-03-21 05:08:00,17.1,14.1,28.97,ENE,67,3.6,5.4,88,0.00,,,0.00,VWS V14.01,2013-03-21 09:08:00,
2013-03-21 05:09:00,17.1,14.1,28.97,ENE,67,3.6,3.6,88,0.00,,,0.00,VWS V14.01,2013-03-21 09:09:00,
2013-03-21 05:10:00,17.1,14.1,28.97,ENE,63,2.7,3.6,88,0.00,,,0.00,VWS V14.01,2013-03-21 09:10:00,
2013-03-21 05:13:00,16.9,13.4,28.97,ENE,63,2.7,2.7,86,0.00,,,0.00,VWS V14.01,2013-03-21 09:13:00,
2013-03-21 05:14:00,16.9,13.2,28.97,ENE,63,2.7,2.7,85,0.00,,,0.00,VWS V14.01,2013-03-21 09:14:00,
2013-03-21 05:15:00,16.9,13.2,28.97,NE,39,3.6,3.6,85,0.00,,,0.00,VWS V14.01,2013-03-21 09:15:00,
2013-03-21 05:18:00,16.9,13.2,28.97,NE,39,3.6,3.6,85,0.00,,,0.00,VWS V14.01,2013-03-21 09:18:00,
2013-03-21 05:19:00,16.9,13.2,28.97,NE,39,3.6,3.6,85,0.00,,,0.00,VWS V14.01,2013-03-21 09:19:00,
2013-03-21 05:20:00,16.9,13.2,28.97,ENE,65,5.8,5.8,85,0.00,,,0.00,VWS V14.01,2013-03-21 09:20:00,
2013-03-21 05:23:00,16.9,12.9,28.97,ENE,60,3.6,3.6,84,0.00,,,0.00,VWS V14.01,2013-03-21 09:23:00,
2013-03-21 05:24:00,16.9,12.9,28.97,ENE,60,3.6,3.6,84,0.00,,,0.00,VWS V14.01,2013-03-21 09:24:00,
2013-03-21 05:25:00,16.9,12.9,28.97,NE,42,5.8,5.8,84,0.00,,,0.00,VWS V14.01,2013-03-21 09:25:00,
2013-03-21 05:28:00,16.9,12.9,28.97,ENE,58,3.1,3.1,84,0.00,,,0.00,VWS V14.01,2013-03-21 09:28:00,
2013-03-21 05:29:00,16.9,12.9,28.97,ENE,58,3.1,3.1,84,0.00,,,0.00,VWS V14.01,2013-03-21 09:29:00,
2013-03-21 05:30:00,16.9,12.9,28.97,NE,50,2.7,3.6,84,0.00,,,0.00,VWS V14.01,2013-03-21 09:30:00,
2013-03-21 05:34:00,16.9,12.9,28.97,NE,41,5.4,5.4,84,0.00,,,0.00,VWS V14.01,2013-03-21 09:34:00,
2013-03-21 05:35:00,16.9,12.9,28.97,NE,41,5.4,5.4,84,0.00,,,0.00,VWS V14.01,2013-03-21 09:35:00,
2013-03-21 05:39:00,17.1,13.1,28.97,NNE,16,3.1,3.1,84,0.00,,,0.00,VWS V14.01,2013-03-21 09:39:00,
2013-03-21 05:40:00,17.1,13.1,28.94,NNE,16,3.1,3.1,84,0.00,,,0.00,VWS V14.01,2013-03-21 09:40:00,
2013-03-21 05:44:00,17.1,13.1,28.94,NNE,25,5.4,5.4,84,0.00,,,0.00,VWS V14.01,2013-03-21 09:44:00,
2013-03-21 05:45:00,17.1,13.1,28.94,NE,43,4.0,5.4,84,0.00,,,0.00,VWS V14.01,2013-03-21 09:45:00,
2013-03-21 05:49:00,16.9,13.2,28.94,NE,43,4.0,4.0,85,0.00,,,0.00,VWS V14.01,2013-03-21 09:49:00,
2013-03-21 05:50:00,16.9,13.4,28.94,NE,35,5.4,5.4,86,0.00,,,0.00,VWS V14.01,2013-03-21 09:50:00,
2013-03-21 05:54:00,16.9,13.4,28.94,North,2,3.6,3.6,86,0.00,,,0.00,VWS V14.01,2013-03-21 09:54:00,
2013-03-21 05:55:00,16.9,13.4,28.94,NE,43,4.0,4.0,86,0.00,,,0.00,VWS V14.01,2013-03-21 09:55:00,
2013-03-21 05:59:00,16.9,13.4,28.97,NE,39,3.1,5.4,86,0.00,,,0.00,VWS V14.01,2013-03-21 09:59:00,
2013-03-21 06:00:00,16.9,13.4,28.97,NE,39,3.1,3.1,86,0.00,,,0.00,VWS V14.01,2013-03-21 10:00:00,
2013-03-21 06:04:00,16.7,13.2,28.97,NNE,32,6.3,6.3,86,0.00,,,0.00,VWS V14.01,2013-03-21 10:04:00,
2013-03-21 06:05:00,16.7,13.2,28.97,NE,45,3.1,3.6,86,0.00,,,0.00,VWS V14.01,2013-03-21 10:05:00,
2013-03-21 06:09:00,16.7,13.2,28.97,NE,38,5.4,5.4,86,0.00,,,0.00,VWS V14.01,2013-03-21 10:09:00,
2013-03-21 06:10:00,16.7,13.2,28.97,NE,38,5.4,5.4,86,0.00,,,0.00,VWS V14.01,2013-03-21 10:10:00,
2013-03-21 06:14:00,16.7,13.5,28.97,NE,44,0.0,0.0,87,0.00,,,0.00,VWS V14.01,2013-03-21 10:14:00,
2013-03-21 06:16:00,16.7,13.5,28.97,NE,44,0.0,0.0,87,0.00,,,0.00,VWS V14.01,2013-03-21 10:16:00,
2013-03-21 06:19:00,16.9,13.7,28.97,NE,44,4.0,4.0,87,0.00,,,0.00,VWS V14.01,2013-03-21 10:19:00,
2013-03-21 06:21:00,16.9,13.7,28.97,NNE,12,2.7,4.0,87,0.00,,,0.00,VWS V14.01,2013-03-21 10:21:00,
2013-03-21 06:24:00,16.9,13.7,28.97,NNE,12,2.7,2.7,87,0.00,,,0.00,VWS V14.01,2013-03-21 10:24:00,
2013-03-21 06:25:00,16.9,13.7,28.97,NE,49,5.8,5.8,87,0.00,,,0.00,VWS V14.01,2013-03-21 10:25:00,
2013-03-21 06:26:00,16.9,13.7,28.97,NE,44,4.0,4.0,87,0.00,,,0.00,VWS V14.01,2013-03-21 10:26:00,
2013-03-21 06:29:00,16.9,13.7,28.97,NNE,13,3.6,3.6,87,0.00,,,0.00,VWS V14.01,2013-03-21 10:29:00,
2013-03-21 06:31:00,16.9,13.7,28.97,NNE,13,3.6,3.6,87,0.00,,,0.00,VWS V14.01,2013-03-21 10:31:00,
2013-03-21 06:34:00,16.9,13.7,28.97,NE,34,3.6,3.6,87,0.00,,,0.00,VWS V14.01,2013-03-21 10:34:00,
2013-03-21 06:35:00,16.9,13.7,28.97,NE,34,3.6,3.6,87,0.00,,,0.00,VWS V14.01,2013-03-21 10:35:00,
2013-03-21 06:36:00,16.9,13.9,28.94,NE,44,6.3,6.3,88,0.00,,,0.00,VWS V14.01,2013-03-21 10:36:00,
2013-03-21 06:39:00,16.7,13.8,28.94,NNE,30,8.3,8.3,88,0.00,,,0.00,VWS V14.01,2013-03-21 10:39:00,
2013-03-21 06:40:00,16.7,13.5,28.94,NNE,30,8.3,8.3,87,0.00,,,0.00,VWS V14.01,2013-03-21 10:40:00,
2013-03-21 06:42:00,16.7,13.5,28.94,NNE,30,8.3,8.3,87,0.00,,,0.00,VWS V14.01,2013-03-21 10:42:00,
2013-03-21 06:44:00,16.7,13.5,28.94,ENE,62,4.0,5.4,87,0.00,,,0.00,VWS V14.01,2013-03-21 10:44:00,
2013-03-21 06:45:00,16.7,13.5,28.94,ENE,62,4.0,5.4,87,0.00,,,0.00,VWS V14.01,2013-03-21 10:45:00,
2013-03-21 06:47:00,16.7,13.5,28.94,ENE,61,7.6,7.6,87,0.00,,,0.00,VWS V14.01,2013-03-21 10:47:00,
2013-03-21 06:50:00,16.7,13.5,28.94,NE,38,4.9,4.9,87,0.00,,,0.00,VWS V14.01,2013-03-21 10:50:00,
2013-03-21 06:53:00,16.7,13.5,28.94,NE,38,4.9,4.9,87,0.00,,,0.00,VWS V14.01,2013-03-21 10:53:00,
2013-03-21 06:55:00,16.7,13.5,28.97,ENE,63,3.6,3.6,87,0.00,,,0.00,VWS V14.01,2013-03-21 10:55:00,
2013-03-21 06:58:00,16.7,13.8,28.97,North,11,3.6,3.6,88,0.00,,,0.00,VWS V14.01,2013-03-21 10:58:00,
2013-03-21 07:00:00,16.7,13.8,28.97,NNE,12,4.9,4.9,88,0.00,,,0.00,VWS V14.01,2013-03-21 11:00:00,
2013-03-21 07:03:00,16.7,13.8,28.97,NNE,12,4.9,4.9,88,0.00,,,0.00,VWS V14.01,2013-03-21 11:03:00,
2013-03-21 07:05:00,16.7,13.8,28.97,NNE,12,4.9,4.9,88,0.00,,,0.00,VWS V14.01,2013-03-21 11:05:00,
2013-03-21 07:08:00,16.7,13.5,28.97,NNE,12,5.4,5.4,87,0.00,,,0.00,VWS V14.01,2013-03-21 11:08:00,
2013-03-21 07:10:00,16.7,13.5,28.97,NE,40,4.0,5.8,87,0.00,,,0.00,VWS V14.01,2013-03-21 11:10:00,
2013-03-21 07:11:00,16.7,13.5,28.97,NE,47,3.6,4.0,87,0.00,,,0.00,VWS V14.01,2013-03-21 11:11:00,
2013-03-21 07:13:00,16.7,13.5,28.97,NE,37,4.0,4.0,87,0.00,,,0.00,VWS V14.01,2013-03-21 11:13:00,
2013-03-21 07:15:00,16.5,13.1,28.97,North,1,5.4,5.4,86,0.00,,,0.00,VWS V14.01,2013-03-21 11:15:00,
2013-03-21 07:16:00,16.5,13.1,28.97,North,1,5.4,5.4,86,0.00,,,0.00,VWS V14.01,2013-03-21 11:16:00,
2013-03-21 07:18:00,16.5,13.1,28.97,NNE,31,3.1,3.1,86,0.00,,,0.00,VWS V14.01,2013-03-21 11:18:00,
2013-03-21 07:20:00,16.5,13.1,28.97,NE,43,5.4,5.4,86,0.00,,,0.00,VWS V14.01,2013-03-21 11:20:00,
2013-03-21 07:21:00,16.5,13.1,28.97,NE,43,5.4,5.4,86,0.00,,,0.00,VWS V14.01,2013-03-21 11:21:00,
2013-03-21 07:23:00,16.5,12.8,28.97,North,11,4.0,4.0,85,0.00,,,0.00,VWS V14.01,2013-03-21 11:23:00,
2013-03-21 07:25:00,16.5,12.8,28.97,NE,48,4.5,4.5,85,0.00,,,0.00,VWS V14.01,2013-03-21 11:25:00,
2013-03-21 07:26:00,16.5,12.8,28.97,NE,48,4.5,4.5,85,0.00,,,0.00,VWS V14.01,2013-03-21 11:26:00,
2013-03-21 07:27:00,16.5,12.8,28.97,NE,48,4.5,4.5,85,0.00,,,0.00,VWS V14.01,2013-03-21 11:27:00,
2013-03-21 07:28:00,16.5,12.8,28.97,NE,38,5.8,5.8,85,0.00,,,0.00,VWS V14.01,2013-03-21 11:28:00,
2013-03-21 07:30:00,16.5,12.8,28.97,NNE,33,8.3,8.3,85,0.00,,,0.00,VWS V14.01,2013-03-21 11:30:00,
2013-03-21 07:31:00,16.5,12.8,28.97,NNE,33,8.3,8.3,85,0.00,,,0.00,VWS V14.01,2013-03-21 11:31:00,
2013-03-21 07:32:00,16.5,12.8,28.97,NNE,33,8.3,8.3,85,0.00,,,0.00,VWS V14.01,2013-03-21 11:32:00,
2013-03-21 07:33:00,16.5,12.5,28.97,NE,42,4.0,5.4,84,0.00,,,0.00,VWS V14.01,2013-03-21 11:33:00,
2013-03-21 07:35:00,16.5,12.5,28.97,NNE,29,3.6,3.6,84,0.00,,,0.00,VWS V14.01,2013-03-21 11:35:00,
2013-03-21 07:36:00,16.5,12.5,28.97,NNE,29,3.6,3.6,84,0.00,,,0.00,VWS V14.01,2013-03-21 11:36:00,
2013-03-21 07:37:00,16.5,12.5,28.97,NE,35,5.4,5.4,84,0.00,,,0.00,VWS V14.01,2013-03-21 11:37:00,
2013-03-21 07:38:00,16.5,12.5,28.97,NE,35,5.4,5.4,84,0.00,,,0.00,VWS V14.01,2013-03-21 11:38:00,
2013-03-21 07:40:00,16.5,12.5,28.97,NE,34,5.4,5.4,84,0.00,,,0.00,VWS V14.01,2013-03-21 11:40:00,
2013-03-21 07:41:00,16.5,12.5,28.97,North,1,6.3,6.3,84,0.00,,,0.00,VWS V14.01,2013-03-21 11:41:00,
2013-03-21 07:43:00,16.5,12.5,28.97,NE,53,7.6,7.6,84,0.00,,,0.00,VWS V14.01,2013-03-21 11:43:00,
2013-03-21 07:44:00,16.5,12.5,28.97,North,7,5.4,8.1,84,0.00,,,0.00,VWS V14.01,2013-03-21 11:44:00,
2013-03-21 07:46:00,16.2,11.9,28.97,NE,34,7.6,7.6,83,0.00,,,0.00,VWS V14.01,2013-03-21 11:46:00,
2013-03-21 07:48:00,16.2,11.9,28.97,NE,34,7.6,7.6,83,0.00,,,0.00,VWS V14.01,2013-03-21 11:48:00,
2013-03-21 07:49:00,16.2,11.9,28.97,NE,34,7.6,7.6,83,0.00,,,0.00,VWS V14.01,2013-03-21 11:49:00,
2013-03-21 07:51:00,16.2,11.9,28.97,NE,49,6.3,6.3,83,0.00,,,0.00,VWS V14.01,2013-03-21 11:51:00,
2013-03-21 07:52:00,16.2,11.9,28.97,NE,49,6.3,6.3,83,0.00,,,0.00,VWS V14.01,2013-03-21 11:52:00,
2013-03-21 07:53:00,16.2,11.9,28.97,NE,49,3.6,3.6,83,0.00,,,0.00,VWS V14.01,2013-03-21 11:53:00,
2013-03-21 07:54:00,16.2,11.9,28.97,North,353,6.3,6.3,83,0.00,,,0.00,VWS V14.01,2013-03-21 11:54:00,
2013-03-21 07:57:00,16.3,12.1,28.97,NE,39,5.4,5.4,83,0.00,,,0.00,VWS V14.01,2013-03-21 11:57:00,
2013-03-21 07:58:00,16.3,12.1,28.97,NE,39,5.4,5.4,83,0.00,,,0.00,VWS V14.01,2013-03-21 11:58:00,
2013-03-21 07:59:00,16.3,12.1,28.97,North,4,6.7,6.7,83,0.00,,,0.00,VWS V14.01,2013-03-21 11:59:00,
2013-03-21 08:02:00,16.3,12.1,28.97,NNE,13,5.4,5.4,83,0.00,,,0.00,VWS V14.01,2013-03-21 12:02:00,
2013-03-21 08:03:00,16.3,12.1,28.97,NE,42,5.4,5.4,83,0.00,,,0.00,VWS V14.01,2013-03-21 12:03:00,
2013-03-21 08:04:00,16.3,12.1,28.97,North,0,5.8,5.8,83,0.00,,,0.00,VWS V14.01,2013-03-21 12:04:00,
2013-03-21 08:07:00,16.5,12.3,28.97,NE,36,4.0,6.3,83,0.00,,,0.00,VWS V14.01,2013-03-21 12:07:00,
2013-03-21 08:08:00,16.5,12.3,28.97,NE,36,4.0,4.0,83,0.00,,,0.00,VWS V14.01,2013-03-21 12:08:00,
2013-03-21 08:09:00,16.5,12.3,28.97,NE,36,4.0,4.0,83,0.00,,,0.00,VWS V14.01,2013-03-21 12:09:00,
2013-03-21 08:12:00,16.7,12.7,28.97,NE,54,7.6,7.6,84,0.00,,,0.00,VWS V14.01,2013-03-21 12:12:00,
2013-03-21 08:13:00,16.7,12.4,28.97,NE,54,7.6,7.6,83,0.00,,,0.00,VWS V14.01,2013-03-21 12:13:00,
2013-03-21 08:14:00,16.7,12.4,28.97,NE,54,7.6,7.6,83,0.00,,,0.00,VWS V14.01,2013-03-21 12:14:00,
2013-03-21 08:17:00,16.7,12.4,28.97,NNE,18,5.8,5.8,83,0.00,,,0.00,VWS V14.01,2013-03-21 12:17:00,
2013-03-21 08:18:00,16.7,12.4,28.97,NNE,18,5.8,5.8,83,0.00,,,0.00,VWS V14.01,2013-03-21 12:18:00,
2013-03-21 08:19:00,16.7,12.4,28.97,NE,37,4.0,5.8,83,0.00,,,0.00,VWS V14.01,2013-03-21 12:19:00,
2013-03-21 08:23:00,16.9,12.9,28.97,NE,45,5.4,5.4,84,0.00,,,0.00,VWS V14.01,2013-03-21 12:23:00,
2013-03-21 08:24:00,16.9,12.9,28.97,NE,45,5.4,5.4,84,0.00,,,0.00,VWS V14.01,2013-03-21 12:24:00,
2013-03-21 08:25:00,16.9,12.9,28.97,NE,45,5.8,8.3,84,0.00,,,0.00,VWS V14.01,2013-03-21 12:25:00,
2013-03-21 08:28:00,17.1,13.1,28.97,NE,41,5.8,5.8,84,0.00,,,0.00,VWS V14.01,2013-03-21 12:28:00,
2013-03-21 08:29:00,17.1,13.1,28.97,NE,41,5.4,5.4,84,0.00,,,0.00,VWS V14.01,2013-03-21 12:29:00,
2013-03-21 08:30:00,17.1,13.1,28.97,NE,41,5.4,5.4,84,0.00,,,0.00,VWS V14.01,2013-03-21 12:30:00,
2013-03-21 08:33:00,17.2,13.2,28.97,NE,37,6.3,6.3,84,0.00,,,0.00,VWS V14.01,2013-03-21 12:33:00,
2013-03-21 08:34:00,17.2,13.2,28.97,NE,37,6.3,6.3,84,0.00,,,0.00,VWS V14.01,2013-03-21 12:34:00,
2013-03-21 08:35:00,17.2,13.2,28.97,NE,37,6.3,6.3,84,0.00,,,0.00,VWS V14.01,2013-03-21 12:35:00,
2013-03-21 08:38:00,17.2,13.2,28.97,ENE,57,3.6,3.6,84,0.00,,,0.00,VWS V14.01,2013-03-21 12:38:00,
2013-03-21 08:39:00,17.1,12.8,28.97,ENE,65,7.6,7.6,83,0.00,,,0.00,VWS V14.01,2013-03-21 12:39:00,
2013-03-21 08:40:00,17.1,12.8,28.97,ENE,65,7.6,7.6,83,0.00,,,0.00,VWS V14.01,2013-03-21 12:40:00,
2013-03-21 08:43:00,17.4,13.4,28.97,NE,40,4.9,4.9,84,0.00,,,0.00,VWS V14.01,2013-03-21 12:43:00,
2013-03-21 08:44:00,17.4,13.4,28.97,NE,40,4.9,4.9,84,0.00,,,0.00,VWS V14.01,2013-03-21 12:44:00,
2013-03-21 08:45:00,17.4,13.4,28.97,NE,40,4.9,4.9,84,0.00,,,0.00,VWS V14.01,2013-03-21 12:45:00,
2013-03-21 08:48:00,17.6,13.9,28.97,NNE,27,4.9,4.9,85,0.00,,,0.00,VWS V14.01,2013-03-21 12:48:00,
2013-03-21 08:49:00,17.6,13.9,28.97,NNE,27,4.9,4.9,85,0.00,,,0.00,VWS V14.01,2013-03-21 12:49:00,
2013-03-21 08:50:00,17.8,13.8,28.97,NE,55,8.1,8.1,84,0.00,,,0.00,VWS V14.01,2013-03-21 12:50:00,
2013-03-21 08:53:00,17.8,13.8,28.97,NE,43,8.1,8.1,84,0.00,,,0.00,VWS V14.01,2013-03-21 12:53:00,
2013-03-21 08:54:00,17.8,13.8,28.97,NE,43,8.1,8.1,84,0.00,,,0.00,VWS V14.01,2013-03-21 12:54:00,
2013-03-21 08:55:00,17.8,13.8,28.97,NE,39,7.6,7.6,84,0.00,,,0.00,VWS V14.01,2013-03-21 12:55:00,
2013-03-21 08:58:00,17.8,13.8,28.97,North,3,8.7,8.7,84,0.00,,,0.00,VWS V14.01,2013-03-21 12:58:00,
2013-03-21 08:59:00,17.8,13.8,28.97,ENE,58,5.8,8.7,84,0.00,,,0.00,VWS V14.01,2013-03-21 12:59:00,
2013-03-21 09:00:00,17.8,13.8,28.97,ENE,58,5.8,5.8,84,0.00,,,0.00,VWS V14.01,2013-03-21 13:00:00,
2013-03-21 09:03:00,17.8,13.8,28.97,NE,37,8.1,8.1,84,0.00,,,0.00,VWS V14.01,2013-03-21 13:03:00,
2013-03-21 09:04:00,18.1,14.1,28.97,NE,37,8.1,8.1,84,0.00,,,0.00,VWS V14.01,2013-03-21 13:04:00,
2013-03-21 09:05:00,18.1,14.1,28.97,NE,37,8.1,8.1,84,0.00,,,0.00,VWS V14.01,2013-03-21 13:05:00,
2013-03-21 09:08:00,18.1,14.1,28.97,NE,41,8.7,8.7,84,0.00,,,0.00,VWS V14.01,2013-03-21 13:08:00,
2013-03-21 09:09:00,18.1,14.1,28.97,NE,42,4.0,8.7,84,0.00,,,0.00,VWS V14.01,2013-03-21 13:09:00,
2013-03-21 09:10:00,18.1,14.1,28.97,ENE,68,4.0,4.0,84,0.00,,,0.00,VWS V14.01,2013-03-21 13:10:00,
2013-03-21 09:13:00,18.1,13.9,28.97,NE,36,5.4,5.4,83,0.00,,,0.00,VWS V14.01,2013-03-21 13:13:00,
2013-03-21 09:14:00,18.1,13.9,28.97,NE,36,5.4,5.4,83,0.00,,,0.00,VWS V14.01,2013-03-21 13:14:00,
2013-03-21 09:15:00,18.1,13.9,28.97,NE,36,5.4,5.4,83,0.00,,,0.00,VWS V14.01,2013-03-21 13:15:00,
2013-03-21 09:18:00,18.1,13.9,28.97,NNE,20,5.8,5.8,83,0.00,,,0.00,VWS V14.01,2013-03-21 13:18:00,
2013-03-21 09:19:00,18.5,14.5,28.97,NNE,20,5.8,5.8,84,0.00,,,0.00,VWS V14.01,2013-03-21 13:19:00,
2013-03-21 09:20:00,18.5,14.5,28.97,NE,50,6.3,6.3,84,0.00,,,0.00,VWS V14.01,2013-03-21 13:20:00,
2013-03-21 09:23:00,18.5,14.5,28.97,NE,36,4.9,4.9,84,0.00,,,0.00,VWS V14.01,2013-03-21 13:23:00,
2013-03-21 09:24:00,18.5,14.5,28.97,NE,38,8.1,8.1,84,0.00,,,0.00,VWS V14.01,2013-03-21 13:24:00,
2013-03-21 09:25:00,18.5,14.5,28.97,NNE,32,5.4,8.1,84,0.00,,,0.00,VWS V14.01,2013-03-21 13:25:00,
2013-03-21 09:29:00,18.5,14.5,28.97,ENE,64,8.3,8.3,84,0.00,,,0.00,VWS V14.01,2013-03-21 13:29:00,
2013-03-21 09:30:00,18.5,14.5,28.97,ENE,58,7.6,7.6,84,0.00,,,0.00,VWS V14.01,2013-03-21 13:30:00,
2013-03-21 09:34:00,18.7,14.4,28.97,NE,44,6.3,6.3,83,0.00,,,0.00,VWS V14.01,2013-03-21 13:34:00,
2013-03-21 09:35:00,18.7,14.4,28.97,NE,44,6.3,6.3,83,0.00,,,0.00,VWS V14.01,2013-03-21 13:35:00,
2013-03-21 09:39:00,19.6,15.0,28.97,NE,34,5.4,5.4,82,0.00,,,0.00,VWS V14.01,2013-03-21 13:39:00,
2013-03-21 09:40:00,19.6,15.0,28.97,NE,34,5.4,5.4,82,0.00,,,0.00,VWS V14.01,2013-03-21 13:40:00,
2013-03-21 09:44:00,19.9,15.3,28.97,ENE,59,5.8,5.8,82,0.00,,,0.00,VWS V14.01,2013-03-21 13:44:00,
2013-03-21 09:45:00,19.9,15.3,28.97,NNE,25,9.6,9.6,82,0.00,,,0.00,VWS V14.01,2013-03-21 13:45:00,
2013-03-21 09:46:00,19.9,15.3,28.97,NE,39,6.7,9.6,82,0.00,,,0.00,VWS V14.01,2013-03-21 13:46:00,
2013-03-21 09:49:00,20.3,15.7,28.97,NE,39,6.7,6.7,82,0.00,,,0.00,VWS V14.01,2013-03-21 13:49:00,
2013-03-21 09:50:00,20.3,15.7,28.97,NE,39,6.7,6.7,82,0.00,,,0.00,VWS V14.01,2013-03-21 13:50:00,
2013-03-21 09:51:00,20.3,15.7,28.97,NE,39,6.7,6.7,82,0.00,,,0.00,VWS V14.01,2013-03-21 13:51:00,
2013-03-21 09:55:00,20.3,15.7,28.97,ENE,60,7.6,7.6,82,0.00,,,0.00,VWS V14.01,2013-03-21 13:55:00,
2013-03-21 09:56:00,20.8,16.2,28.97,ENE,70,8.1,8.1,82,0.00,,,0.00,VWS V14.01,2013-03-21 13:56:00,
2013-03-21 10:00:00,20.8,16.2,28.97,NE,42,6.3,6.3,82,0.00,,,0.00,VWS V14.01,2013-03-21 14:00:00,
2013-03-21 10:01:00,20.8,16.2,28.97,NE,42,6.3,6.3,82,0.00,,,0.00,VWS V14.01,2013-03-21 14:01:00,
2013-03-21 10:02:00,20.8,16.2,28.97,NE,42,6.3,6.3,82,0.00,,,0.00,VWS V14.01,2013-03-21 14:02:00,
2013-03-21 10:05:00,20.8,16.2,28.97,East,89,6.3,6.3,82,0.00,,,0.00,VWS V14.01,2013-03-21 14:05:00,
2013-03-21 10:06:00,21.7,17.1,28.97,East,89,6.3,6.3,82,0.00,,,0.00,VWS V14.01,2013-03-21 14:06:00,
2013-03-21 10:07:00,21.6,16.6,28.97,NE,35,4.0,4.0,81,0.00,,,0.00,VWS V14.01,2013-03-21 14:07:00,
2013-03-21 10:10:00,21.6,16.6,28.97,NE,55,5.8,5.8,81,0.00,,,0.00,VWS V14.01,2013-03-21 14:10:00,
2013-03-21 10:11:00,21.6,16.6,28.97,NE,41,5.8,5.8,81,0.00,,,0.00,VWS V14.01,2013-03-21 14:11:00,
2013-03-21 10:13:00,21.6,16.6,28.97,NE,46,5.4,5.4,81,0.00,,,0.00,VWS V14.01,2013-03-21 14:13:00,
2013-03-21 10:15:00,21.6,16.6,28.97,ENE,72,4.9,5.4,81,0.00,,,0.00,VWS V14.01,2013-03-21 14:15:00,
2013-03-21 10:16:00,21.6,16.6,28.97,ENE,72,4.9,4.9,81,0.00,,,0.00,VWS V14.01,2013-03-21 14:16:00,
2013-03-21 10:18:00,22.1,16.9,28.97,ENE,64,3.1,3.1,80,0.00,,,0.00,VWS V14.01,2013-03-21 14:18:00,
2013-03-21 10:20:00,22.1,16.9,28.97,NE,43,7.6,7.6,80,0.00,,,0.00,VWS V14.01,2013-03-21 14:20:00,
2013-03-21 10:21:00,22.1,16.9,28.97,ENE,65,5.4,5.4,80,0.00,,,0.00,VWS V14.01,2013-03-21 14:21:00,
2013-03-21 10:23:00,22.5,17.2,28.97,ENE,66,7.6,7.6,80,0.00,,,0.00,VWS V14.01,2013-03-21 14:23:00,
2013-03-21 10:25:00,22.5,17.2,28.97,ENE,66,7.6,7.6,80,0.00,,,0.00,VWS V14.01,2013-03-21 14:25:00,
2013-03-21 10:26:00,22.8,17.6,28.97,ENE,66,7.6,7.6,80,0.00,,,0.00,VWS V14.01,2013-03-21 14:26:00,
2013-03-21 10:28:00,22.8,17.6,28.97,ENE,68,4.0,4.0,80,0.00,,,0.00,VWS V14.01,2013-03-21 14:28:00,
2013-03-21 10:30:00,23.0,17.8,28.97,ENE,68,4.0,4.0,80,0.00,,,0.00,VWS V14.01,2013-03-21 14:30:00,
2013-03-21 10:31:00,23.2,17.9,28.97,ENE,68,4.0,4.0,80,0.00,,,0.00,VWS V14.01,2013-03-21 14:31:00,
2013-03-21 10:34:00,23.2,17.9,28.97,ENE,68,4.0,4.0,80,0.00,,,0.00,VWS V14.01,2013-03-21 14:34:00,
2013-03-21 10:35:00,23.2,17.9,28.97,NE,46,8.3,8.3,80,0.00,,,0.00,VWS V14.01,2013-03-21 14:35:00,
2013-03-21 10:36:00,23.2,17.9,28.97,ENE,78,9.2,9.2,80,0.00,,,0.00,VWS V14.01,2013-03-21 14:36:00,
2013-03-21 10:39:00,23.4,17.8,28.97,East,92,5.4,5.4,79,0.00,,,0.00,VWS V14.01,2013-03-21 14:39:00,
2013-03-21 10:40:00,23.5,18.0,28.97,East,92,5.4,5.4,79,0.00,,,0.00,VWS V14.01,2013-03-21 14:40:00,
2013-03-21 10:41:00,23.5,18.0,28.97,ENE,60,9.6,9.6,79,0.00,,,0.00,VWS V14.01,2013-03-21 14:41:00,
2013-03-21 10:44:00,23.5,18.0,28.97,ENE,60,9.6,9.6,79,0.00,,,0.00,VWS V14.01,2013-03-21 14:44:00,
2013-03-21 10:45:00,23.5,18.0,28.97,NNE,26,7.6,7.6,79,0.00,,,0.00,VWS V14.01,2013-03-21 14:45:00,
2013-03-21 10:46:00,23.5,18.0,28.97,ENE,71,5.8,7.6,79,0.00,,,0.00,VWS V14.01,2013-03-21 14:46:00,
2013-03-21 10:47:00,23.5,18.0,28.97,ENE,71,5.8,7.6,79,0.00,,,0.00,VWS V14.01,2013-03-21 14:47:00,
2013-03-21 10:49:00,24.1,18.5,28.97,NE,34,8.1,8.1,79,0.00,,,0.00,VWS V14.01,2013-03-21 14:49:00,
2013-03-21 10:51:00,24.1,18.5,28.97,ENE,58,6.3,6.3,79,0.00,,,0.00,VWS V14.01,2013-03-21 14:51:00,
2013-03-21 10:52:00,24.1,18.5,29.00,ENE,58,6.3,6.3,79,0.00,,,0.00,VWS V14.01,2013-03-21 14:52:00,
2013-03-21 10:54:00,24.4,18.9,29.00,ENE,58,6.3,6.3,79,0.00,,,0.00,VWS V14.01,2013-03-21 14:54:00,
2013-03-21 10:56:00,24.6,19.0,29.00,NE,47,6.3,6.3,79,0.00,,,0.00,VWS V14.01,2013-03-21 14:56:00,
2013-03-21 10:57:00,24.6,19.0,29.00,NE,47,6.3,6.3,79,0.00,,,0.00,VWS V14.01,2013-03-21 14:57:00,
2013-03-21 10:59:00,24.6,19.0,29.00,NE,47,6.3,6.3,79,0.00,,,0.00,VWS V14.01,2013-03-21 14:59:00,
2013-03-21 11:02:00,24.6,19.0,29.00,ENE,68,7.2,7.2,79,0.00,,,0.00,VWS V14.01,2013-03-21 15:02:00,
2013-03-21 11:03:00,24.6,19.0,29.00,ENE,73,8.1,8.1,79,0.00,,,0.00,VWS V14.01,2013-03-21 15:03:00,
2013-03-21 11:04:00,24.8,19.2,29.00,NE,52,7.6,8.1,79,0.00,,,0.00,VWS V14.01,2013-03-21 15:04:00,
2013-03-21 11:07:00,25.0,19.4,29.00,NE,52,7.6,7.6,79,0.00,,,0.00,VWS V14.01,2013-03-21 15:07:00,
2013-03-21 11:08:00,25.3,19.8,29.00,NE,52,7.6,7.6,79,0.00,,,0.00,VWS V14.01,2013-03-21 15:08:00,
2013-03-21 11:09:00,25.3,19.5,29.00,NE,52,7.6,7.6,78,0.00,,,0.00,VWS V14.01,2013-03-21 15:09:00,
2013-03-21 11:12:00,25.3,19.5,29.00,ENE,63,5.8,5.8,78,0.00,,,0.00,VWS V14.01,2013-03-21 15:12:00,
2013-03-21 11:13:00,25.3,19.5,29.00,ENE,68,8.1,8.1,78,0.00,,,0.00,VWS V14.01,2013-03-21 15:13:00,
2013-03-21 11:14:00,25.5,19.9,29.00,ENE,68,8.1,8.1,79,0.00,,,0.00,VWS V14.01,2013-03-21 15:14:00,
2013-03-21 11:17:00,25.7,19.8,29.00,ENE,64,8.3,8.3,78,0.00,,,0.00,VWS V14.01,2013-03-21 15:17:00,
2013-03-21 11:18:00,25.7,19.8,29.00,ENE,64,8.3,8.3,78,0.00,,,0.00,VWS V14.01,2013-03-21 15:18:00,
2013-03-21 11:19:00,25.7,19.8,29.00,ENE,64,8.3,8.3,78,0.00,,,0.00,VWS V14.01,2013-03-21 15:19:00,
2013-03-21 11:22:00,25.7,19.8,29.00,ENE,61,5.4,5.4,78,0.00,,,0.00,VWS V14.01,2013-03-21 15:22:00,
2013-03-21 11:23:00,25.7,19.8,29.00,ENE,61,5.4,5.4,78,0.00,,,0.00,VWS V14.01,2013-03-21 15:23:00,
2013-03-21 11:24:00,25.7,19.8,29.00,ENE,66,5.4,5.4,78,0.00,,,0.00,VWS V14.01,2013-03-21 15:24:00,
2013-03-21 11:27:00,25.7,19.8,29.00,NE,49,4.0,4.0,78,0.00,,,0.00,VWS V14.01,2013-03-21 15:27:00,
2013-03-21 11:28:00,25.7,19.8,29.00,ENE,57,5.8,5.8,78,0.00,,,0.00,VWS V14.01,2013-03-21 15:28:00,
2013-03-21 11:29:00,25.7,19.8,29.00,ENE,62,6.3,6.3,78,0.00,,,0.00,VWS V14.01,2013-03-21 15:29:00,
2013-03-21 11:32:00,26.1,20.1,29.00,ENE,60,7.2,7.2,78,0.00,,,0.00,VWS V14.01,2013-03-21 15:32:00,
2013-03-21 11:33:00,26.1,20.1,29.00,ENE,60,7.2,7.2,78,0.00,,,0.00,VWS V14.01,2013-03-21 15:33:00,
2013-03-21 11:34:00,26.1,20.1,29.00,ENE,60,7.2,7.2,78,0.00,,,0.00,VWS V14.01,2013-03-21 15:34:00,
2013-03-21 11:37:00,26.6,20.7,29.00,NE,55,5.4,5.4,78,0.00,,,0.00,VWS V14.01,2013-03-21 15:37:00,
2013-03-21 11:38:00,26.6,20.7,29.00,NE,55,5.4,5.4,78,0.00,,,0.00,VWS V14.01,2013-03-21 15:38:00,
2013-03-21 11:39:00,26.6,20.7,29.00,ENE,67,5.4,5.4,78,0.00,,,0.00,VWS V14.01,2013-03-21 15:39:00,
2013-03-21 11:42:00,27.0,21.0,29.00,ENE,72,12.8,12.8,78,0.00,,,0.00,VWS V14.01,2013-03-21 15:42:00,
2013-03-21 11:43:00,27.0,21.0,29.00,NE,54,10.1,12.8,78,0.00,,,0.00,VWS V14.01,2013-03-21 15:43:00,
2013-03-21 11:45:00,27.0,21.0,29.00,NE,52,7.6,7.6,78,0.00,,,0.00,VWS V14.01,2013-03-21 15:45:00,
2013-03-21 11:47:00,27.0,21.0,29.00,ENE,76,4.0,7.6,78,0.00,,,0.00,VWS V14.01,2013-03-21 15:47:00,
2013-03-21 11:48:00,27.0,21.0,29.00,ENE,76,4.0,4.0,78,0.00,,,0.00,VWS V14.01,2013-03-21 15:48:00,
2013-03-21 11:50:00,27.0,21.0,29.00,ENE,76,4.0,4.0,78,0.00,,,0.00,VWS V14.01,2013-03-21 15:50:00,
2013-03-21 11:53:00,27.0,21.0,29.00,NE,50,3.1,3.1,78,0.00,,,0.00,VWS V14.01,2013-03-21 15:53:00,
2013-03-21 11:55:00,27.0,21.0,29.00,NE,41,4.0,4.0,78,0.00,,,0.00,VWS V14.01,2013-03-21 15:55:00,
2013-03-21 11:58:00,27.1,21.2,29.00,NE,47,6.7,6.7,78,0.00,,,0.00,VWS V14.01,2013-03-21 15:58:00,
2013-03-21 12:00:00,27.3,21.4,29.00,ENE,77,8.1,8.1,78,0.00,,,0.00,VWS V14.01,2013-03-21 16:00:00,
2013-03-21 12:03:00,27.7,21.7,29.00,ENE,77,8.1,8.1,78,0.00,,,0.00,VWS V14.01,2013-03-21 16:03:00,
2013-03-21 12:05:00,27.5,21.5,29.00,ENE,57,5.4,5.8,78,0.00,,,0.00,VWS V14.01,2013-03-21 16:05:00,
2013-03-21 12:08:00,27.7,21.7,29.00,ENE,57,5.4,5.4,78,0.00,,,0.00,VWS V14.01,2013-03-21 16:08:00,
2013-03-21 12:10:00,27.7,21.7,29.00,ENE,65,8.1,8.1,78,0.00,,,0.00,VWS V14.01,2013-03-21 16:10:00,
2013-03-21 12:13:00,27.7,21.7,29.00,NE,38,2.7,6.3,78,0.00,,,0.00,VWS V14.01,2013-03-21 16:13:00,
2013-03-21 12:14:00,27.7,21.7,29.00,NE,38,2.7,2.7,78,0.00,,,0.00,VWS V14.01,2013-03-21 16:14:00,
2013-03-21 12:15:00,28.2,22.0,29.00,NE,38,2.7,2.7,77,0.00,,,0.00,VWS V14.01,2013-03-21 16:15:00,
2013-03-21 12:18:00,28.4,22.1,29.00,NE,38,2.7,2.7,77,0.00,,,0.00,VWS V14.01,2013-03-21 16:18:00,
2013-03-21 12:19:00,28.4,22.1,29.00,NE,38,2.7,2.7,77,0.00,,,0.00,VWS V14.01,2013-03-21 16:19:00,
2013-03-21 12:21:00,28.4,22.1,29.00,ENE,69,7.6,7.6,77,0.00,,,0.00,VWS V14.01,2013-03-21 16:21:00,
2013-03-21 12:23:00,28.2,22.0,29.00,NE,49,9.6,9.6,77,0.00,,,0.00,VWS V14.01,2013-03-21 16:23:00,
2013-03-21 12:24:00,28.2,22.0,29.00,NE,49,9.6,9.6,77,0.00,,,0.00,VWS V14.01,2013-03-21 16:24:00,
2013-03-21 12:26:00,28.2,22.0,29.00,North,357,11.9,11.9,77,0.00,,,0.00,VWS V14.01,2013-03-21 16:26:00,
2013-03-21 12:28:00,28.0,21.8,29.00,NNE,18,4.0,11.0,77,0.00,,,0.00,VWS V14.01,2013-03-21 16:28:00,
2013-03-21 12:29:00,28.0,21.8,29.00,NNE,18,4.0,4.0,77,0.00,,,0.00,VWS V14.01,2013-03-21 16:29:00,
2013-03-21 12:31:00,28.0,21.8,29.00,ENE,58,5.8,5.8,77,0.00,,,0.00,VWS V14.01,2013-03-21 16:31:00,
2013-03-21 12:33:00,28.4,22.1,29.00,NE,34,8.1,8.1,77,0.00,,,0.00,VWS V14.01,2013-03-21 16:33:00,
2013-03-21 12:34:00,28.4,22.1,29.00,NE,34,8.1,8.1,77,0.00,,,0.00,VWS V14.01,2013-03-21 16:34:00,
2013-03-21 12:36:00,28.6,22.3,29.00,ENE,66,6.3,6.3,77,0.00,,,0.00,VWS V14.01,2013-03-21 16:36:00,
2013-03-21 12:38:00,28.6,22.3,29.00,ENE,66,6.3,6.3,77,0.00,,,0.00,VWS V14.01,2013-03-21 16:38:00,
2013-03-21 12:39:00,28.6,22.3,29.00,NE,35,6.3,6.3,77,0.00,,,0.00,VWS V14.01,2013-03-21 16:39:00,
2013-03-21 12:42:00,28.6,22.3,29.00,NE,46,7.6,7.6,77,0.00,,,0.00,VWS V14.01,2013-03-21 16:42:00,
2013-03-21 12:43:00,28.6,22.3,29.00,NE,46,7.6,7.6,77,0.00,,,0.00,VWS V14.01,2013-03-21 16:43:00,
2013-03-21 12:44:00,28.6,22.3,29.00,NE,46,7.6,7.6,77,0.00,,,0.00,VWS V14.01,2013-03-21 16:44:00,
2013-03-21 12:47:00,28.6,22.3,29.00,NE,46,7.6,7.6,77,0.00,,,0.00,VWS V14.01,2013-03-21 16:47:00,
2013-03-21 12:48:00,28.6,22.3,29.00,ENE,61,5.4,5.4,77,0.00,,,0.00,VWS V14.01,2013-03-21 16:48:00,
2013-03-21 12:49:00,28.6,22.3,29.00,ENE,61,5.4,5.4,77,0.00,,,0.00,VWS V14.01,2013-03-21 16:49:00,
2013-03-21 12:50:00,28.9,22.6,29.00,ENE,61,5.4,5.4,77,0.00,,,0.00,VWS V14.01,2013-03-21 16:50:00,
2013-03-21 12:52:00,29.1,22.8,29.00,ENE,61,5.4,5.4,77,0.00,,,0.00,VWS V14.01,2013-03-21 16:52:00,
2013-03-21 12:54:00,29.1,22.8,29.00,ENE,61,5.4,5.4,77,0.00,,,0.00,VWS V14.01,2013-03-21 16:54:00,
2013-03-21 12:55:00,29.3,23.0,29.00,NE,49,10.1,10.1,77,0.00,,,0.00,VWS V14.01,2013-03-21 16:55:00,
2013-03-21 12:57:00,29.3,23.0,29.00,ENE,67,6.3,6.3,77,0.00,,,0.00,VWS V14.01,2013-03-21 16:57:00,
2013-03-21 12:59:00,29.5,23.2,29.00,ENE,67,6.3,6.3,77,0.00,,,0.00,VWS V14.01,2013-03-21 16:59:00,
2013-03-21 13:00:00,29.5,23.2,29.00,NNE,29,5.4,5.4,77,0.00,,,0.00,VWS V14.01,2013-03-21 17:00:00,
2013-03-21 13:03:00,29.5,23.2,29.00,ENE,69,6.3,6.3,77,0.00,,,0.00,VWS V14.01,2013-03-21 17:03:00,
2013-03-21 13:04:00,29.5,23.2,29.00,ENE,69,6.3,6.3,77,0.00,,,0.00,VWS V14.01,2013-03-21 17:04:00,
2013-03-21 13:05:00,29.5,23.2,29.00,NE,55,3.6,3.6,77,0.00,,,0.00,VWS V14.01,2013-03-21 17:05:00,
2013-03-21 13:08:00,29.3,23.0,29.00,NE,55,3.6,3.6,77,0.00,,,0.00,VWS V14.01,2013-03-21 17:08:00,
2013-03-21 13:09:00,29.1,22.8,29.00,NE,41,7.6,7.6,77,0.00,,,0.00,VWS V14.01,2013-03-21 17:09:00,
2013-03-21 13:10:00,29.1,22.8,29.00,NE,41,7.6,7.6,77,0.00,,,0.00,VWS V14.01,2013-03-21 17:10:00,
2013-03-21 13:13:00,28.8,22.5,29.00,NE,41,7.6,7.6,77,0.00,,,0.00,VWS V14.01,2013-03-21 17:13:00,
2013-03-21 13:14:00,28.6,22.3,29.00,NE,41,7.6,7.6,77,0.00,,,0.00,VWS V14.01,2013-03-21 17:14:00,
2013-03-21 13:15:00,28.6,22.3,29.00,NE,41,7.6,7.6,77,0.00,,,0.00,VWS V14.01,2013-03-21 17:15:00,
2013-03-21 13:18:00,28.9,22.6,29.00,NE,55,5.8,5.8,77,0.00,,,0.00,VWS V14.01,2013-03-21 17:18:00,
2013-03-21 13:19:00,29.1,22.8,29.00,NE,55,5.8,5.8,77,0.00,,,0.00,VWS V14.01,2013-03-21 17:19:00,
2013-03-21 13:20:00,29.1,22.8,29.00,NE,55,5.8,5.8,77,0.00,,,0.00,VWS V14.01,2013-03-21 17:20:00,
2013-03-21 13:23:00,29.5,23.2,29.03,ENE,71,4.9,4.9,77,0.00,,,0.00,VWS V14.01,2013-03-21 17:23:00,
2013-03-21 13:24:00,29.5,23.2,29.03,ENE,71,4.9,4.9,77,0.00,,,0.00,VWS V14.01,2013-03-21 17:24:00,
2013-03-21 13:25:00,29.5,23.2,29.03,ENE,71,4.9,4.9,77,0.00,,,0.00,VWS V14.01,2013-03-21 17:25:00,
2013-03-21 13:26:00,29.5,23.2,29.03,ENE,71,4.9,4.9,77,0.00,,,0.00,VWS V14.01,2013-03-21 17:26:00,
2013-03-21 13:28:00,29.5,23.2,29.03,ENE,69,8.3,8.3,77,0.00,,,0.00,VWS V14.01,2013-03-21 17:28:00,
2013-03-21 13:29:00,29.5,23.2,29.03,NE,42,8.3,8.3,77,0.00,,,0.00,VWS V14.01,2013-03-21 17:29:00,
2013-03-21 13:30:00,29.5,23.2,29.03,NE,42,8.3,8.3,77,0.00,,,0.00,VWS V14.01,2013-03-21 17:30:00,
2013-03-21 13:31:00,29.5,23.2,29.03,ENE,64,8.1,8.3,77,0.00,,,0.00,VWS V14.01,2013-03-21 17:31:00,
2013-03-21 13:34:00,29.1,22.8,29.03,NE,55,5.8,5.8,77,0.00,,,0.00,VWS V14.01,2013-03-21 17:34:00,
2013-03-21 13:35:00,28.9,22.6,29.03,ENE,78,8.1,8.1,77,0.00,,,0.00,VWS V14.01,2013-03-21 17:35:00,
2013-03-21 13:36:00,28.9,22.6,29.03,ENE,78,8.1,8.1,77,0.00,,,0.00,VWS V14.01,2013-03-21 17:36:00,
2013-03-21 13:39:00,29.1,22.8,29.03,ENE,72,8.7,8.7,77,0.00,,,0.00,VWS V14.01,2013-03-21 17:39:00,
2013-03-21 13:40:00,29.1,22.8,29.03,ENE,72,8.7,8.7,77,0.00,,,0.00,VWS V14.01,2013-03-21 17:40:00,
2013-03-21 13:41:00,29.1,22.8,29.03,ENE,72,8.7,8.7,77,0.00,,,0.00,VWS V14.01,2013-03-21 17:41:00,
2013-03-21 13:44:00,29.1,22.8,29.03,ENE,71,13.2,13.2,77,0.00,,,0.00,VWS V14.01,2013-03-21 17:44:00,
2013-03-21 13:45:00,29.1,22.8,29.03,ENE,71,13.2,13.2,77,0.00,,,0.00,VWS V14.01,2013-03-21 17:45:00,
2013-03-21 13:46:00,29.1,22.8,29.03,ENE,71,13.2,13.2,77,0.00,,,0.00,VWS V14.01,2013-03-21 17:46:00,
2013-03-21 13:49:00,29.1,22.8,29.03,NE,48,6.3,6.3,77,0.00,,,0.00,VWS V14.01,2013-03-21 17:49:00,
2013-03-21 13:50:00,29.7,23.4,29.03,ENE,67,5.8,6.3,77,0.00,,,0.00,VWS V14.01,2013-03-21 17:50:00,
2013-03-21 13:51:00,29.7,23.4,29.03,ENE,67,5.8,5.8,77,0.00,,,0.00,VWS V14.01,2013-03-21 17:51:00,
2013-03-21 13:52:00,30.0,23.7,29.03,ENE,67,5.8,5.8,77,0.00,,,0.00,VWS V14.01,2013-03-21 17:52:00,
2013-03-21 13:54:00,30.0,23.7,29.03,ENE,67,5.8,5.8,77,0.00,,,0.00,VWS V14.01,2013-03-21 17:54:00,
2013-03-21 13:55:00,30.0,23.7,29.03,NE,39,6.3,6.3,77,0.00,,,0.00,VWS V14.01,2013-03-21 17:55:00,
2013-03-21 13:57:00,30.0,23.7,29.03,ENE,67,4.0,5.8,77,0.00,,,0.00,VWS V14.01,2013-03-21 17:57:00,
2013-03-21 13:59:00,30.9,24.6,29.03,ENE,67,4.0,4.0,77,0.00,,,0.00,VWS V14.01,2013-03-21 17:59:00,
2013-03-21 14:01:00,31.1,24.8,29.03,ENE,67,4.0,4.0,77,0.00,,,0.00,VWS V14.01,2013-03-21 18:01:00,
2013-03-21 14:02:00,31.1,24.8,29.03,ENE,67,4.0,4.0,77,0.00,,,0.00,VWS V14.01,2013-03-21 18:02:00,
2013-03-21 14:04:00,31.1,24.8,29.03,ENE,60,5.8,5.8,77,0.00,,,0.00,VWS V14.01,2013-03-21 18:04:00,
2013-03-21 14:06:00,31.1,24.8,29.03,ENE,64,6.7,6.7,77,0.00,,,0.00,VWS V14.01,2013-03-21 18:06:00,
2013-03-21 14:07:00,31.1,24.8,29.00,ENE,64,5.4,6.7,77,0.00,,,0.00,VWS V14.01,2013-03-21 18:07:00,
2013-03-21 14:08:00,31.1,24.8,29.00,ENE,64,5.4,5.4,77,0.00,,,0.00,VWS V14.01,2013-03-21 18:08:00,
2013-03-21 14:09:00,31.3,24.9,29.00,NE,56,6.3,6.3,77,0.00,,,0.00,VWS V14.01,2013-03-21 18:09:00,
2013-03-21 14:11:00,31.5,25.1,29.00,NE,56,6.3,6.3,77,0.00,,,0.00,VWS V14.01,2013-03-21 18:11:00,
2013-03-21 14:13:00,31.5,25.1,29.00,ENE,71,8.7,8.7,77,0.00,,,0.00,VWS V14.01,2013-03-21 18:13:00,
2013-03-21 14:14:00,31.5,25.1,29.00,East,79,12.8,12.8,77,0.00,,,0.00,VWS V14.01,2013-03-21 18:14:00,
2013-03-21 14:16:00,31.5,25.1,29.00,East,79,12.8,12.8,77,0.00,,,0.00,VWS V14.01,2013-03-21 18:16:00,
2013-03-21 14:18:00,31.5,25.1,29.00,East,79,12.8,12.8,77,0.00,,,0.00,VWS V14.01,2013-03-21 18:18:00,
2013-03-21 14:19:00,31.5,25.1,29.00,ENE,60,5.4,5.4,77,0.00,,,0.00,VWS V14.01,2013-03-21 18:19:00,
2013-03-21 14:21:00,31.5,25.1,29.00,ENE,60,5.4,5.4,77,0.00,,,0.00,VWS V14.01,2013-03-21 18:21:00,
2013-03-21 14:23:00,31.5,25.1,29.00,NE,54,6.3,6.3,77,0.00,,,0.00,VWS V14.01,2013-03-21 18:23:00,
2013-03-21 14:24:00,31.5,25.1,29.00,NE,54,6.3,6.3,77,0.00,,,0.00,VWS V14.01,2013-03-21 18:24:00,
2013-03-21 14:26:00,31.5,25.1,29.00,NE,34,4.0,4.0,77,0.00,,,0.00,VWS V14.01,2013-03-21 18:26:00,
2013-03-21 14:28:00,31.5,25.1,29.00,ENE,65,7.2,7.2,77,0.00,,,0.00,VWS V14.01,2013-03-21 18:28:00,
2013-03-21 14:29:00,31.5,25.1,29.00,ENE,65,7.2,7.2,77,0.00,,,0.00,VWS V14.01,2013-03-21 18:29:00,
2013-03-21 14:32:00,31.5,25.1,29.00,ENE,65,7.2,7.2,77,0.00,,,0.00,VWS V14.01,2013-03-21 18:32:00,
2013-03-21 14:33:00,32.0,25.6,29.00,ENE,72,3.1,3.1,77,0.00,,,0.00,VWS V14.01,2013-03-21 18:33:00,
2013-03-21 14:34:00,32.0,25.6,29.00,ENE,72,3.1,3.1,77,0.00,,,0.00,VWS V14.01,2013-03-21 18:34:00,
2013-03-21 14:37:00,32.2,25.8,29.00,ENE,75,7.2,7.2,77,0.00,,,0.00,VWS V14.01,2013-03-21 18:37:00,
2013-03-21 14:38:00,32.2,25.8,29.00,ENE,61,6.3,8.3,77,0.00,,,0.00,VWS V14.01,2013-03-21 18:38:00,
2013-03-21 14:39:00,32.2,25.8,29.00,ENE,67,4.0,6.3,77,0.00,,,0.00,VWS V14.01,2013-03-21 18:39:00,
2013-03-21 14:42:00,32.2,25.8,29.00,East,84,8.1,8.1,77,0.00,,,0.00,VWS V14.01,2013-03-21 18:42:00,
2013-03-21 14:43:00,32.2,25.8,29.00,East,84,8.1,8.1,77,0.00,,,0.00,VWS V14.01,2013-03-21 18:43:00,
2013-03-21 14:44:00,32.2,25.8,29.00,East,84,8.1,8.1,77,0.00,,,0.00,VWS V14.01,2013-03-21 18:44:00,
2013-03-21 14:48:00,32.0,25.6,29.00,ENE,57,10.5,10.5,77,0.00,,,0.00,VWS V14.01,2013-03-21 18:48:00,
2013-03-21 14:50:00,32.0,25.6,29.00,NE,55,4.9,4.9,77,0.00,,,0.00,VWS V14.01,2013-03-21 18:50:00,
2013-03-21 14:53:00,32.2,25.8,29.00,NE,55,4.9,4.9,77,0.00,,,0.00,VWS V14.01,2013-03-21 18:53:00,
2013-03-21 14:54:00,32.2,25.8,29.00,East,82,3.6,3.6,77,0.00,,,0.00,VWS V14.01,2013-03-21 18:54:00,
2013-03-21 14:55:00,32.2,25.8,29.00,East,82,3.6,3.6,77,0.00,,,0.00,VWS V14.01,2013-03-21 18:55:00,
2013-03-21 14:58:00,32.2,25.8,29.00,East,82,3.6,3.6,77,0.00,,,0.00,VWS V14.01,2013-03-21 18:58:00,
2013-03-21 14:59:00,32.2,25.8,29.00,East,82,3.6,3.6,77,0.00,,,0.00,VWS V14.01,2013-03-21 18:59:00,
2013-03-21 15:00:00,32.2,25.8,29.00,ENE,63,10.1,10.1,77,0.00,,,0.00,VWS V14.01,2013-03-21 19:00:00,
2013-03-21 15:03:00,32.4,26.0,29.00,ENE,68,8.7,8.7,77,0.00,,,0.00,VWS V14.01,2013-03-21 19:03:00,
2013-03-21 15:04:00,32.4,26.0,29.00,ENE,69,6.3,8.7,77,0.00,,,0.00,VWS V14.01,2013-03-21 19:04:00,
2013-03-21 15:05:00,32.4,26.0,29.00,ENE,69,6.3,6.3,77,0.00,,,0.00,VWS V14.01,2013-03-21 19:05:00,
2013-03-21 15:08:00,32.7,26.3,29.00,ENE,64,8.1,8.1,77,0.00,,,0.00,VWS V14.01,2013-03-21 19:08:00,
2013-03-21 15:09:00,32.7,26.3,29.00,ENE,64,8.1,8.1,77,0.00,,,0.00,VWS V14.01,2013-03-21 19:09:00,
2013-03-21 15:10:00,32.7,26.3,29.00,ENE,64,8.1,8.1,77,0.00,,,0.00,VWS V14.01,2013-03-21 19:10:00,
2013-03-21 15:13:00,33.1,26.7,29.00,NE,42,3.6,3.6,77,0.00,,,0.00,VWS V14.01,2013-03-21 19:13:00,
2013-03-21 15:14:00,33.1,26.7,29.00,ENE,71,10.5,10.5,77,0.00,,,0.00,VWS V14.01,2013-03-21 19:14:00,
2013-03-21 15:16:00,33.1,26.7,29.00,ENE,65,6.3,6.3,77,0.00,,,0.00,VWS V14.01,2013-03-21 19:16:00,
2013-03-21 15:18:00,33.1,26.7,29.00,ENE,65,6.3,6.3,77,0.00,,,0.00,VWS V14.01,2013-03-21 19:18:00,
2013-03-21 15:19:00,33.1,26.7,29.00,ENE,65,6.3,6.3,77,0.00,,,0.00,VWS V14.01,2013-03-21 19:19:00,
2013-03-21 15:21:00,33.1,26.7,29.00,ENE,65,6.3,6.3,77,0.00,,,0.00,VWS V14.01,2013-03-21 19:21:00,
2013-03-21 15:23:00,33.3,26.8,29.00,East,80,7.6,7.6,77,0.00,,,0.00,VWS V14.01,2013-03-21 19:23:00,
2013-03-21 15:24:00,33.4,27.0,29.00,East,80,7.6,7.6,77,0.00,,,0.00,VWS V14.01,2013-03-21 19:24:00,
2013-03-21 15:25:00,33.4,27.0,29.00,East,80,7.6,7.6,77,0.00,,,0.00,VWS V14.01,2013-03-21 19:25:00,
2013-03-21 15:26:00,33.4,27.0,29.00,East,80,7.6,7.6,77,0.00,,,0.00,VWS V14.01,2013-03-21 19:26:00,
2013-03-21 15:28:00,33.4,27.0,29.00,ENE,58,5.8,7.6,77,0.00,,,0.00,VWS V14.01,2013-03-21 19:28:00,
2013-03-21 15:29:00,33.4,27.0,29.00,ENE,73,5.4,5.8,77,0.00,,,0.00,VWS V14.01,2013-03-21 19:29:00,
2013-03-21 15:30:00,33.4,27.0,29.00,ENE,73,5.4,5.8,77,0.00,,,0.00,VWS V14.01,2013-03-21 19:30:00,
2013-03-21 15:31:00,33.4,27.0,29.00,ENE,67,4.5,5.4,77,0.00,,,0.00,VWS V14.01,2013-03-21 19:31:00,
2013-03-21 15:33:00,33.6,27.2,29.00,ENE,62,6.3,6.3,77,0.00,,,0.00,VWS V14.01,2013-03-21 19:33:00,
2013-03-21 15:35:00,33.6,27.2,29.00,ENE,62,6.3,6.3,77,0.00,,,0.00,VWS V14.01,2013-03-21 19:35:00,
2013-03-21 15:36:00,33.6,27.2,29.00,ENE,77,8.1,8.1,77,0.00,,,0.00,VWS V14.01,2013-03-21 19:36:00,
2013-03-21 15:38:00,33.6,27.2,29.00,ENE,77,8.1,8.1,77,0.00,,,0.00,VWS V14.01,2013-03-21 19:38:00,
2013-03-21 15:40:00,33.6,27.2,29.00,ENE,77,8.1,8.1,77,0.00,,,0.00,VWS V14.01,2013-03-21 19:40:00,
2013-03-21 15:42:00,33.6,27.2,29.00,NE,44,6.7,6.7,77,0.00,,,0.00,VWS V14.01,2013-03-21 19:42:00,
2013-03-21 15:44:00,33.6,27.2,29.00,NNE,12,6.3,6.3,77,0.00,,,0.00,VWS V14.01,2013-03-21 19:44:00,
2013-03-21 15:45:00,33.6,27.2,29.00,NNE,12,6.3,6.3,77,0.00,,,0.00,VWS V14.01,2013-03-21 19:45:00,
2013-03-21 15:47:00,33.6,27.2,29.00,ENE,61,5.4,5.4,77,0.00,,,0.00,VWS V14.01,2013-03-21 19:47:00,
2013-03-21 15:49:00,33.4,27.0,29.00,ENE,61,5.4,5.4,77,0.00,,,0.00,VWS V14.01,2013-03-21 19:49:00,
2013-03-21 15:50:00,33.4,27.0,29.00,NE,53,5.4,5.4,77,0.00,,,0.00,VWS V14.01,2013-03-21 19:50:00,
2013-03-21 15:52:00,33.6,27.2,29.00,NE,53,5.4,5.4,77,0.00,,,0.00,VWS V14.01,2013-03-21 19:52:00,
2013-03-21 15:54:00,33.6,27.2,29.00,NE,53,5.4,5.4,77,0.00,,,0.00,VWS V14.01,2013-03-21 19:54:00,
2013-03-21 15:55:00,33.6,27.2,29.00,NE,39,2.7,2.7,77,0.00,,,0.00,VWS V14.01,2013-03-21 19:55:00,
2013-03-21 15:57:00,33.6,27.2,29.00,ENE,69,6.7,6.7,77,0.00,,,0.00,VWS V14.01,2013-03-21 19:57:00,
2013-03-21 15:59:00,33.8,27.0,29.00,ENE,69,6.7,6.7,76,0.00,,,0.00,VWS V14.01,2013-03-21 19:59:00,
2013-03-21 16:00:00,33.8,27.0,29.00,ENE,69,6.7,6.7,76,0.00,,,0.00,VWS V14.01,2013-03-21 20:00:00,
2013-03-21 16:02:00,33.8,27.0,29.00,ENE,69,6.7,6.7,76,0.00,,,0.00,VWS V14.01,2013-03-21 20:02:00,
2013-03-21 16:04:00,33.8,27.0,29.00,ENE,67,3.6,3.6,76,0.00,,,0.00,VWS V14.01,2013-03-21 20:04:00,
2013-03-21 16:05:00,33.8,27.0,29.00,ENE,67,3.6,3.6,76,0.00,,,0.00,VWS V14.01,2013-03-21 20:05:00,
2013-03-21 16:06:00,33.8,27.0,29.00,ENE,63,7.6,7.6,76,0.00,,,0.00,VWS V14.01,2013-03-21 20:06:00,
2013-03-21 16:08:00,34.7,27.9,29.00,ENE,63,7.6,7.6,76,0.00,,,0.00,VWS V14.01,2013-03-21 20:08:00,
2013-03-21 16:09:00,34.7,27.9,29.00,NNE,27,5.4,5.4,76,0.00,,,0.00,VWS V14.01,2013-03-21 20:09:00,
2013-03-21 16:11:00,34.7,27.9,29.00,NE,56,8.3,8.3,76,0.00,,,0.00,VWS V14.01,2013-03-21 20:11:00,
2013-03-21 16:13:00,34.7,27.9,29.00,NE,56,8.3,8.3,76,0.00,,,0.00,VWS V14.01,2013-03-21 20:13:00,
2013-03-21 16:14:00,34.7,27.9,29.00,NE,56,8.3,8.3,76,0.00,,,0.00,VWS V14.01,2013-03-21 20:14:00,
2013-03-21 16:16:00,34.7,27.9,29.00,NE,56,8.3,8.3,76,0.00,,,0.00,VWS V14.01,2013-03-21 20:16:00,
2013-03-21 16:17:00,34.7,27.9,29.00,NE,39,3.6,8.3,76,0.00,,,0.00,VWS V14.01,2013-03-21 20:17:00,
2013-03-21 16:18:00,34.7,27.9,29.00,NE,37,7.6,7.6,76,0.00,,,0.00,VWS V14.01,2013-03-21 20:18:00,
2013-03-21 16:19:00,34.7,27.9,29.00,NE,44,5.8,7.6,76,0.00,,,0.00,VWS V14.01,2013-03-21 20:19:00,
2013-03-21 16:21:00,34.7,27.9,29.00,ENE,69,8.7,8.7,76,0.00,,,0.00,VWS V14.01,2013-03-21 20:21:00,
2013-03-21 16:22:00,34.7,27.9,29.00,ENE,69,8.7,8.7,76,0.00,,,0.00,VWS V14.01,2013-03-21 20:22:00,
2013-03-21 16:23:00,34.7,27.9,29.00,ENE,69,8.7,8.7,76,0.00,,,0.00,VWS V14.01,2013-03-21 20:23:00,
2013-03-21 16:24:00,34.7,27.9,29.00,NNE,29,8.7,8.7,76,0.00,,,0.00,VWS V14.01,2013-03-21 20:24:00,
2013-03-21 16:26:00,34.9,28.1,29.00,NNE,29,8.7,8.7,76,0.00,,,0.00,VWS V14.01,2013-03-21 20:26:00,
2013-03-21 16:27:00,34.9,28.1,29.00,NNE,29,8.7,8.7,76,0.00,,,0.00,VWS V14.01,2013-03-21 20:27:00,
2013-03-21 16:28:00,34.9,28.1,29.00,NNE,29,8.7,8.7,76,0.00,,,0.00,VWS V14.01,2013-03-21 20:28:00,
2013-03-21 16:30:00,35.1,28.3,29.00,NNE,29,8.7,8.7,76,0.00,,,0.00,VWS V14.01,2013-03-21 20:30:00,
2013-03-21 16:32:00,35.1,28.3,29.00,NNE,33,6.3,8.7,76,0.00,,,0.00,VWS V14.01,2013-03-21 20:32:00,
2013-03-21 16:33:00,35.1,28.3,29.00,NE,51,7.6,7.6,76,0.00,,,0.00,VWS V14.01,2013-03-21 20:33:00,
2013-03-21 16:35:00,35.1,28.3,29.00,NE,37,4.9,4.9,76,0.00,,,0.00,VWS V14.01,2013-03-21 20:35:00,
2013-03-21 16:37:00,34.9,28.1,29.00,NE,37,4.9,4.9,76,0.00,,,0.00,VWS V14.01,2013-03-21 20:37:00,
2013-03-21 16:38:00,34.9,28.1,29.00,East,83,8.7,8.7,76,0.00,,,0.00,VWS V14.01,2013-03-21 20:38:00,
2013-03-21 16:40:00,34.9,28.1,29.00,ENE,75,8.7,8.7,76,0.00,,,0.00,VWS V14.01,2013-03-21 20:40:00,
2013-03-21 16:42:00,34.9,28.1,29.00,ENE,75,8.7,8.7,76,0.00,,,0.00,VWS V14.01,2013-03-21 20:42:00,
2013-03-21 16:43:00,34.9,28.1,29.00,ENE,75,8.7,8.7,76,0.00,,,0.00,VWS V14.01,2013-03-21 20:43:00,
2013-03-21 16:45:00,34.9,28.1,29.00,NE,51,2.7,8.7,76,0.00,,,0.00,VWS V14.01,2013-03-21 20:45:00,
2013-03-21 16:47:00,34.9,28.1,29.00,ENE,62,6.3,6.3,76,0.00,,,0.00,VWS V14.01,2013-03-21 20:47:00,
2013-03-21 16:48:00,34.9,28.1,29.00,ENE,75,6.3,6.3,76,0.00,,,0.00,VWS V14.01,2013-03-21 20:48:00,
2013-03-21 16:50:00,34.9,28.1,29.00,ENE,69,5.4,12.8,76,0.00,,,0.00,VWS V14.01,2013-03-21 20:50:00,
2013-03-21 16:53:00,35.2,28.5,29.00,ENE,61,8.7,8.7,76,0.00,,,0.00,VWS V14.01,2013-03-21 20:53:00,
2013-03-21 16:55:00,35.2,28.5,29.00,ENE,61,8.7,8.7,76,0.00,,,0.00,VWS V14.01,2013-03-21 20:55:00,
2013-03-21 16:58:00,35.2,28.5,29.00,NE,51,8.7,8.7,76,0.00,,,0.00,VWS V14.01,2013-03-21 20:58:00,
2013-03-21 17:00:00,35.4,28.6,29.00,ENE,70,8.1,8.1,76,0.00,,,0.00,VWS V14.01,2013-03-21 21:00:00,
2013-03-21 17:03:00,35.4,28.6,29.00,ENE,76,10.1,10.1,76,0.00,,,0.00,VWS V14.01,2013-03-21 21:03:00,
2013-03-21 17:04:00,35.4,28.6,29.00,ENE,76,10.1,10.1,76,0.00,,,0.00,VWS V14.01,2013-03-21 21:04:00,
2013-03-21 17:06:00,35.4,28.6,28.97,NE,40,10.5,10.5,76,0.00,,,0.00,VWS V14.01,2013-03-21 21:06:00,
2013-03-21 17:08:00,35.4,28.6,28.97,NE,40,10.5,10.5,76,0.00,,,0.00,VWS V14.01,2013-03-21 21:08:00,
2013-03-21 17:09:00,35.4,28.6,28.97,NE,40,10.5,10.5,76,0.00,,,0.00,VWS V14.01,2013-03-21 21:09:00,
2013-03-21 17:11:00,35.4,28.6,28.97,NE,40,10.5,10.5,76,0.00,,,0.00,VWS V14.01,2013-03-21 21:11:00,
2013-03-21 17:13:00,34.9,28.1,28.97,ENE,69,4.0,8.7,76,0.00,,,0.00,VWS V14.01,2013-03-21 21:13:00,
2013-03-21 17:14:00,34.9,28.1,28.97,East,82,4.9,4.9,76,0.00,,,0.00,VWS V14.01,2013-03-21 21:14:00,
2013-03-21 17:16:00,34.9,28.1,28.97,ENE,72,5.4,5.4,76,0.00,,,0.00,VWS V14.01,2013-03-21 21:16:00,
2013-03-21 17:18:00,35.1,28.3,28.97,ENE,72,5.4,5.4,76,0.00,,,0.00,VWS V14.01,2013-03-21 21:18:00,
2013-03-21 17:19:00,35.1,28.3,28.97,ENE,72,5.4,5.4,76,0.00,,,0.00,VWS V14.01,2013-03-21 21:19:00,
2013-03-21 17:21:00,35.1,28.3,29.00,NE,54,10.5,10.5,76,0.00,,,0.00,VWS V14.01,2013-03-21 21:21:00,
2013-03-21 17:23:00,35.1,28.3,29.00,ENE,66,3.6,8.1,76,0.00,,,0.00,VWS V14.01,2013-03-21 21:23:00,
2013-03-21 17:24:00,35.1,28.3,29.00,ENE,66,3.6,3.6,76,0.00,,,0.00,VWS V14.01,2013-03-21 21:24:00,
2013-03-21 17:27:00,35.6,28.8,29.00,NE,55,4.0,4.0,76,0.00,,,0.00,VWS V14.01,2013-03-21 21:27:00,
2013-03-21 17:29:00,35.8,29.0,29.00,ENE,64,8.1,8.1,76,0.00,,,0.00,VWS V14.01,2013-03-21 21:29:00,
2013-03-21 17:32:00,36.1,29.3,29.00,ENE,64,8.1,8.1,76,0.00,,,0.00,VWS V14.01,2013-03-21 21:32:00,
2013-03-21 17:34:00,36.1,29.3,29.00,ENE,63,4.9,4.9,76,0.00,,,0.00,VWS V14.01,2013-03-21 21:34:00,
2013-03-21 17:35:00,36.1,29.3,29.00,ENE,62,5.8,5.8,76,0.00,,,0.00,VWS V14.01,2013-03-21 21:35:00,
2013-03-21 17:37:00,36.1,29.3,29.00,ENE,62,5.8,5.8,76,0.00,,,0.00,VWS V14.01,2013-03-21 21:37:00,
2013-03-21 17:39:00,36.1,29.3,29.00,ENE,62,5.8,5.8,76,0.00,,,0.00,VWS V14.01,2013-03-21 21:39:00,
2013-03-21 17:40:00,36.1,29.3,29.00,ENE,77,5.4,5.4,76,0.00,,,0.00,VWS V14.01,2013-03-21 21:40:00,
2013-03-21 17:42:00,36.3,29.5,29.00,NE,36,4.0,4.0,76,0.00,,,0.00,VWS V14.01,2013-03-21 21:42:00,
2013-03-21 17:44:00,36.3,29.5,29.00,NE,36,4.0,4.0,76,0.00,,,0.00,VWS V14.01,2013-03-21 21:44:00,
2013-03-21 17:45:00,36.3,29.5,29.00,NNE,29,7.6,7.6,76,0.00,,,0.00,VWS V14.01,2013-03-21 21:45:00,
2013-03-21 17:47:00,36.3,29.5,29.00,NE,34,8.7,8.7,76,0.00,,,0.00,VWS V14.01,2013-03-21 21:47:00,
2013-03-21 17:49:00,36.3,29.5,29.00,NE,55,3.6,3.6,76,0.00,,,0.00,VWS V14.01,2013-03-21 21:49:00,
2013-03-21 17:50:00,36.3,29.5,29.00,NE,45,2.7,3.6,76,0.00,,,0.00,VWS V14.01,2013-03-21 21:50:00,
2013-03-21 17:52:00,36.1,29.3,29.00,NE,45,2.7,2.7,76,0.00,,,0.00,VWS V14.01,2013-03-21 21:52:00,
2013-03-21 17:54:00,36.0,29.1,29.00,East,89,8.7,8.7,76,0.00,,,0.00,VWS V14.01,2013-03-21 21:54:00,
2013-03-21 17:55:00,36.0,29.1,29.00,East,89,8.7,8.7,76,0.00,,,0.00,VWS V14.01,2013-03-21 21:55:00,
2013-03-21 17:57:00,35.8,29.0,29.00,East,86,8.7,8.7,76,0.00,,,0.00,VWS V14.01,2013-03-21 21:57:00,
2013-03-21 17:59:00,35.8,29.0,29.00,NE,49,7.6,8.1,76,0.00,,,0.00,VWS V14.01,2013-03-21 21:59:00,
2013-03-21 18:00:00,35.8,29.0,29.00,NE,49,7.6,7.6,76,0.00,,,0.00,VWS V14.01,2013-03-21 22:00:00,
2013-03-21 18:02:00,36.0,29.1,29.00,NE,47,5.4,5.4,76,0.00,,,0.00,VWS V14.01,2013-03-21 22:02:00,
2013-03-21 18:04:00,36.0,29.1,29.00,ENE,72,6.3,6.3,76,0.00,,,0.00,VWS V14.01,2013-03-21 22:04:00,
2013-03-21 18:05:00,36.0,29.1,29.00,NE,49,8.7,8.7,76,0.00,,,0.00,VWS V14.01,2013-03-21 22:05:00,
2013-03-21 18:07:00,36.0,29.1,29.00,ENE,72,5.8,5.8,76,0.00,,,0.00,VWS V14.01,2013-03-21 22:07:00,
2013-03-21 18:10:00,36.1,29.3,29.00,East,81,8.1,8.1,76,0.00,,,0.00,VWS V14.01,2013-03-21 22:10:00,
2013-03-21 18:13:00,35.6,28.8,29.00,East,81,8.1,8.1,76,0.00,,,0.00,VWS V14.01,2013-03-21 22:13:00,
2013-03-21 18:15:00,35.6,28.8,29.00,ENE,65,5.8,5.8,76,0.00,,,0.00,VWS V14.01,2013-03-21 22:15:00,
2013-03-21 18:18:00,34.3,27.6,29.00,NE,55,12.3,12.3,76,0.00,,,0.00,VWS V14.01,2013-03-21 22:18:00,
2013-03-21 18:20:00,34.3,27.6,29.00,ENE,78,8.1,12.3,76,0.00,,,0.00,VWS V14.01,2013-03-21 22:20:00,
2013-03-21 18:23:00,34.0,27.2,29.00,NE,47,12.3,12.3,76,0.00,,,0.00,VWS V14.01,2013-03-21 22:23:00,
2013-03-21 18:25:00,34.0,27.2,29.00,ENE,65,8.7,8.7,76,0.00,,,0.00,VWS V14.01,2013-03-21 22:25:00,
2013-03-21 18:28:00,33.8,27.0,29.00,ENE,71,10.5,10.5,76,0.00,,,0.00,VWS V14.01,2013-03-21 22:28:00,
2013-03-21 18:30:00,33.8,27.0,29.00,East,83,8.7,8.7,76,0.00,,,0.00,VWS V14.01,2013-03-21 22:30:00,
2013-03-21 18:33:00,33.8,27.0,29.00,ENE,72,8.7,8.7,76,0.00,,,0.00,VWS V14.01,2013-03-21 22:33:00,
2013-03-21 18:35:00,33.8,27.0,29.00,ENE,64,8.3,8.3,76,0.00,,,0.00,VWS V14.01,2013-03-21 22:35:00,
2013-03-21 18:38:00,33.8,27.0,29.00,ENE,72,11.0,11.0,76,0.00,,,0.00,VWS V14.01,2013-03-21 22:38:00,
2013-03-21 18:40:00,33.8,27.0,29.00,NE,44,8.3,8.3,76,0.00,,,0.00,VWS V14.01,2013-03-21 22:40:00,
2013-03-21 18:43:00,33.6,27.2,29.00,NE,44,8.3,8.3,77,0.00,,,0.00,VWS V14.01,2013-03-21 22:43:00,
2013-03-21 18:45:00,33.6,27.2,29.00,ENE,75,10.5,10.5,77,0.00,,,0.00,VWS V14.01,2013-03-21 22:45:00,
2013-03-21 18:46:00,33.6,27.2,29.00,ENE,75,10.5,10.5,77,0.00,,,0.00,VWS V14.01,2013-03-21 22:46:00,
2013-03-21 18:48:00,33.3,26.8,29.00,ENE,61,8.7,8.7,77,0.00,,,0.00,VWS V14.01,2013-03-21 22:48:00,
2013-03-21 18:50:00,33.3,26.8,29.00,ENE,62,8.3,8.7,77,0.00,,,0.00,VWS V14.01,2013-03-21 22:50:00,
2013-03-21 18:51:00,33.3,26.8,29.00,ENE,62,8.3,8.3,77,0.00,,,0.00,VWS V14.01,2013-03-21 22:51:00,
2013-03-21 18:54:00,32.9,26.5,29.00,ENE,65,5.8,5.8,77,0.00,,,0.00,VWS V14.01,2013-03-21 22:54:00,
2013-03-21 18:55:00,32.9,26.5,29.00,ENE,73,7.6,7.6,77,0.00,,,0.00,VWS V14.01,2013-03-21 22:55:00,
2013-03-21 18:56:00,32.9,26.5,29.00,ENE,73,7.6,7.6,77,0.00,,,0.00,VWS V14.01,2013-03-21 22:56:00,
2013-03-21 18:59:00,32.7,26.3,29.00,ENE,75,8.1,8.1,77,0.00,,,0.00,VWS V14.01,2013-03-21 22:59:00,
2013-03-21 19:00:00,32.7,26.3,29.00,ENE,75,8.1,8.1,77,0.00,,,0.00,VWS V14.01,2013-03-21 23:00:00,
2013-03-21 19:01:00,32.7,26.3,29.00,ENE,75,8.1,8.1,77,0.00,,,0.00,VWS V14.01,2013-03-21 23:01:00,
2013-03-21 19:04:00,32.7,26.3,29.00,NE,51,4.0,4.0,77,0.00,,,0.00,VWS V14.01,2013-03-21 23:04:00,
2013-03-21 19:06:00,32.7,26.3,29.00,ENE,73,6.3,7.6,77,0.00,,,0.00,VWS V14.01,2013-03-21 23:06:00,
2013-03-21 19:09:00,32.5,26.1,29.00,East,82,7.6,7.6,77,0.00,,,0.00,VWS V14.01,2013-03-21 23:09:00,
2013-03-21 19:11:00,32.5,26.1,29.00,East,82,7.6,7.6,77,0.00,,,0.00,VWS V14.01,2013-03-21 23:11:00,
2013-03-21 19:12:00,32.5,26.1,29.00,East,82,7.6,7.6,77,0.00,,,0.00,VWS V14.01,2013-03-21 23:12:00,
2013-03-21 19:14:00,32.5,26.1,29.00,East,87,4.0,4.0,77,0.00,,,0.00,VWS V14.01,2013-03-21 23:14:00,
2013-03-21 19:16:00,32.5,26.1,29.00,ENE,58,5.8,5.8,77,0.00,,,0.00,VWS V14.01,2013-03-21 23:16:00,
2013-03-21 19:17:00,32.5,26.1,29.00,ENE,58,5.8,5.8,77,0.00,,,0.00,VWS V14.01,2013-03-21 23:17:00,
2013-03-21 19:19:00,32.2,25.8,29.00,ENE,72,6.3,6.3,77,0.00,,,0.00,VWS V14.01,2013-03-21 23:19:00,
2013-03-21 19:21:00,32.0,25.6,29.00,East,79,5.4,5.4,77,0.00,,,0.00,VWS V14.01,2013-03-21 23:21:00,
2013-03-21 19:22:00,32.0,25.6,29.00,East,79,5.4,5.4,77,0.00,,,0.00,VWS V14.01,2013-03-21 23:22:00,
2013-03-21 19:24:00,32.0,25.6,29.00,NE,42,6.3,6.3,77,0.00,,,0.00,VWS V14.01,2013-03-21 23:24:00,
2013-03-21 19:27:00,31.8,25.4,29.00,ENE,70,8.1,8.1,77,0.00,,,0.00,VWS V14.01,2013-03-21 23:27:00,
2013-03-21 19:29:00,31.6,25.3,29.00,NE,56,8.7,8.7,77,0.00,,,0.00,VWS V14.01,2013-03-21 23:29:00,
2013-03-21 19:32:00,31.6,25.3,29.00,ENE,73,6.3,6.3,77,0.00,,,0.00,VWS V14.01,2013-03-21 23:32:00,
2013-03-21 19:34:00,31.6,25.3,29.00,NE,55,4.0,6.3,77,0.00,,,0.00,VWS V14.01,2013-03-21 23:34:00,
2013-03-21 19:37:00,31.3,24.9,29.00,ENE,65,6.3,6.3,77,0.00,,,0.00,VWS V14.01,2013-03-21 23:37:00,
2013-03-21 19:39:00,31.3,24.9,29.00,NE,54,4.0,6.3,77,0.00,,,0.00,VWS V14.01,2013-03-21 23:39:00,
2013-03-21 19:42:00,31.3,24.9,29.00,ENE,61,3.1,3.1,77,0.00,,,0.00,VWS V14.01,2013-03-21 23:42:00,
2013-03-21 19:45:00,30.7,24.4,29.00,ENE,61,3.1,3.1,77,0.00,,,0.00,VWS V14.01,2013-03-21 23:45:00,
2013-03-21 19:47:00,30.4,24.0,29.00,ENE,75,8.1,8.7,77,0.00,,,0.00,VWS V14.01,2013-03-21 23:47:00,
2013-03-21 19:48:00,30.4,24.0,29.00,ENE,75,8.1,8.1,77,0.00,,,0.00,VWS V14.01,2013-03-21 23:48:00,
2013-03-21 19:50:00,30.2,23.9,29.00,ENE,63,6.3,6.3,77,0.00,,,0.00,VWS V14.01,2013-03-21 23:50:00,
2013-03-21 19:52:00,30.0,23.7,29.03,ENE,63,6.3,6.3,77,0.00,,,0.00,VWS V14.01,2013-03-21 23:52:00,
2013-03-21 19:53:00,29.8,23.5,29.03,ENE,63,6.3,6.3,77,0.00,,,0.00,VWS V14.01,2013-03-21 23:53:00,
2013-03-21 19:55:00,29.8,23.5,29.03,ENE,72,4.0,4.0,77,0.00,,,0.00,VWS V14.01,2013-03-21 23:55:00,
2013-03-21 19:57:00,29.8,23.5,29.03,ENE,69,3.6,4.0,77,0.00,,,0.00,VWS V14.01,2013-03-21 23:57:00,
2013-03-21 19:58:00,29.8,23.5,29.03,ENE,69,3.6,3.6,77,0.00,,,0.00,VWS V14.01,2013-03-21 23:58:00,
2013-03-21 20:00:00,29.8,23.5,29.03,ENE,68,2.7,2.7,77,0.00,,,0.00,VWS V14.01,2013-03-22 00:00:00,
2013-03-21 20:03:00,29.5,23.2,29.03,ENE,68,3.6,3.6,77,0.00,,,0.00,VWS V14.01,2013-03-22 00:03:00,
2013-03-21 20:05:00,29.5,23.2,29.03,ENE,68,3.6,3.6,77,0.00,,,0.00,VWS V14.01,2013-03-22 00:05:00,
2013-03-21 20:08:00,29.5,23.2,29.03,ENE,66,3.1,3.1,77,0.00,,,0.00,VWS V14.01,2013-03-22 00:08:00,
2013-03-21 20:09:00,29.5,23.2,29.03,East,82,3.1,3.1,77,0.00,,,0.00,VWS V14.01,2013-03-22 00:09:00,
2013-03-21 20:10:00,28.9,22.6,29.03,ENE,65,5.4,5.4,77,0.00,,,0.00,VWS V14.01,2013-03-22 00:10:00,
2013-03-21 20:13:00,28.9,22.6,29.03,ENE,67,3.6,3.6,77,0.00,,,0.00,VWS V14.01,2013-03-22 00:13:00,
2013-03-21 20:14:00,28.9,22.6,29.03,ENE,67,3.6,3.6,77,0.00,,,0.00,VWS V14.01,2013-03-22 00:14:00,
2013-03-21 20:15:00,28.9,22.6,29.03,NE,47,3.1,3.6,77,0.00,,,0.00,VWS V14.01,2013-03-22 00:15:00,
2013-03-21 20:18:00,28.8,22.5,29.03,NE,47,3.1,3.1,77,0.00,,,0.00,VWS V14.01,2013-03-22 00:18:00,
2013-03-21 20:19:00,28.8,22.5,29.03,NE,47,3.1,3.1,77,0.00,,,0.00,VWS V14.01,2013-03-22 00:19:00,
2013-03-21 20:20:00,28.8,22.5,29.03,NE,47,3.1,3.1,77,0.00,,,0.00,VWS V14.01,2013-03-22 00:20:00,
2013-03-21 20:23:00,28.8,22.5,29.00,ENE,71,4.0,4.0,77,0.00,,,0.00,VWS V14.01,2013-03-22 00:23:00,
2013-03-21 20:24:00,28.8,22.5,29.00,ENE,71,4.0,4.0,77,0.00,,,0.00,VWS V14.01,2013-03-22 00:24:00,
2013-03-21 20:25:00,28.8,22.5,29.00,ENE,64,5.4,5.4,77,0.00,,,0.00,VWS V14.01,2013-03-22 00:25:00,
2013-03-21 20:28:00,28.6,22.3,29.00,ENE,64,5.4,5.4,77,0.00,,,0.00,VWS V14.01,2013-03-22 00:28:00,
2013-03-21 20:29:00,28.6,22.3,29.00,ENE,65,3.1,5.4,77,0.00,,,0.00,VWS V14.01,2013-03-22 00:29:00,
2013-03-21 20:31:00,28.6,22.3,29.00,ENE,65,3.1,3.1,77,0.00,,,0.00,VWS V14.01,2013-03-22 00:31:00,
2013-03-21 20:33:00,28.6,22.3,29.00,ENE,69,4.0,4.0,77,0.00,,,0.00,VWS V14.01,2013-03-22 00:33:00,
2013-03-21 20:34:00,28.6,22.3,29.00,ENE,69,4.0,4.0,77,0.00,,,0.00,VWS V14.01,2013-03-22 00:34:00,
2013-03-21 20:36:00,28.4,22.1,29.00,ENE,70,3.1,3.1,77,0.00,,,0.00,VWS V14.01,2013-03-22 00:36:00,
2013-03-21 20:38:00,28.2,22.0,29.03,ENE,64,5.8,5.8,77,0.00,,,0.00,VWS V14.01,2013-03-22 00:38:00,
2013-03-21 20:39:00,28.2,22.0,29.03,ENE,64,5.8,5.8,77,0.00,,,0.00,VWS V14.01,2013-03-22 00:39:00,
2013-03-21 20:41:00,28.2,22.0,29.03,ENE,69,6.3,6.3,77,0.00,,,0.00,VWS V14.01,2013-03-22 00:41:00,
2013-03-21 20:44:00,28.2,22.0,29.03,ENE,66,4.0,4.0,77,0.00,,,0.00,VWS V14.01,2013-03-22 00:44:00,
2013-03-21 20:46:00,28.2,22.0,29.03,ENE,67,3.6,3.6,77,0.00,,,0.00,VWS V14.01,2013-03-22 00:46:00,
2013-03-21 20:49:00,28.0,21.8,29.03,NE,56,4.0,4.0,77,0.00,,,0.00,VWS V14.01,2013-03-22 00:49:00,
2013-03-21 20:52:00,28.0,21.8,29.03,NE,56,3.6,3.6,77,0.00,,,0.00,VWS V14.01,2013-03-22 00:52:00,
2013-03-21 20:54:00,27.9,21.6,29.03,ENE,59,3.1,3.1,77,0.00,,,0.00,VWS V14.01,2013-03-22 00:54:00,
2013-03-21 20:57:00,27.9,21.6,29.03,ENE,59,3.1,3.1,77,0.00,,,0.00,VWS V14.01,2013-03-22 00:57:00,
2013-03-21 20:59:00,27.9,21.6,29.03,ENE,60,3.1,3.1,77,0.00,,,0.00,VWS V14.01,2013-03-22 00:59:00,
2013-03-21 21:00:00,27.9,21.6,29.03,ENE,60,3.1,3.1,77,0.00,,,0.00,VWS V14.01,2013-03-22 01:00:00,
2013-03-21 21:02:00,27.7,21.4,29.03,ENE,68,3.6,3.6,77,0.00,,,0.00,VWS V14.01,2013-03-22 01:02:00,
2013-03-21 21:04:00,27.7,21.4,29.03,ENE,67,3.6,3.6,77,0.00,,,0.00,VWS V14.01,2013-03-22 01:04:00,
2013-03-21 21:05:00,27.7,21.4,29.03,ENE,67,4.0,4.0,77,0.00,,,0.00,VWS V14.01,2013-03-22 01:05:00,
2013-03-21 21:07:00,27.7,21.4,29.03,ENE,67,3.6,3.6,77,0.00,,,0.00,VWS V14.01,2013-03-22 01:07:00,
2013-03-21 21:09:00,27.7,21.4,29.00,ENE,67,3.6,3.6,77,0.00,,,0.00,VWS V14.01,2013-03-22 01:09:00,
2013-03-21 21:10:00,27.7,21.4,29.00,ENE,67,3.6,3.6,77,0.00,,,0.00,VWS V14.01,2013-03-22 01:10:00,
2013-03-21 21:12:00,27.7,21.4,29.00,ENE,67,2.2,2.2,77,0.00,,,0.00,VWS V14.01,2013-03-22 01:12:00,
2013-03-21 21:14:00,27.7,21.4,29.00,ENE,65,3.1,4.0,77,0.00,,,0.00,VWS V14.01,2013-03-22 01:14:00,
2013-03-21 21:15:00,27.7,21.4,29.00,ENE,65,3.1,3.1,77,0.00,,,0.00,VWS V14.01,2013-03-22 01:15:00,
2013-03-21 21:18:00,27.3,21.4,29.00,ENE,65,3.1,3.1,78,0.00,,,0.00,VWS V14.01,2013-03-22 01:18:00,
2013-03-21 21:19:00,27.3,21.4,29.00,ENE,65,2.7,2.7,78,0.00,,,0.00,VWS V14.01,2013-03-22 01:19:00,
2013-03-21 21:20:00,27.3,21.4,29.00,ENE,65,2.7,2.7,78,0.00,,,0.00,VWS V14.01,2013-03-22 01:20:00,
2013-03-21 21:23:00,27.3,21.4,29.03,ENE,65,2.7,2.7,78,0.00,,,0.00,VWS V14.01,2013-03-22 01:23:00,
2013-03-21 21:24:00,27.1,21.2,29.03,ENE,65,2.7,2.7,78,0.00,,,0.00,VWS V14.01,2013-03-22 01:24:00,
2013-03-21 21:25:00,27.1,21.2,29.03,ENE,64,3.1,3.1,78,0.00,,,0.00,VWS V14.01,2013-03-22 01:25:00,
2013-03-21 21:28:00,27.1,21.2,29.03,ENE,66,5.8,5.8,78,0.00,,,0.00,VWS V14.01,2013-03-22 01:28:00,
2013-03-21 21:29:00,27.1,21.2,29.03,ENE,66,5.8,5.8,78,0.00,,,0.00,VWS V14.01,2013-03-22 01:29:00,
2013-03-21 21:30:00,27.1,21.2,29.03,ENE,71,5.4,5.8,78,0.00,,,0.00,VWS V14.01,2013-03-22 01:30:00,
2013-03-21 21:33:00,27.1,21.2,29.03,ENE,60,3.6,3.6,78,0.00,,,0.00,VWS V14.01,2013-03-22 01:33:00,
2013-03-21 21:34:00,27.1,21.2,29.03,ENE,60,3.6,3.6,78,0.00,,,0.00,VWS V14.01,2013-03-22 01:34:00,
2013-03-21 21:35:00,27.1,21.2,29.03,ENE,60,3.6,3.6,78,0.00,,,0.00,VWS V14.01,2013-03-22 01:35:00,
2013-03-21 21:38:00,27.0,21.0,29.03,ENE,67,0.0,0.0,78,0.00,,,0.00,VWS V14.01,2013-03-22 01:38:00,
2013-03-21 21:39:00,27.0,21.0,29.03,ENE,67,0.0,0.0,78,0.00,,,0.00,VWS V14.01,2013-03-22 01:39:00,
2013-03-21 21:40:00,27.0,21.0,29.03,ENE,67,0.0,0.0,78,0.00,,,0.00,VWS V14.01,2013-03-22 01:40:00,
2013-03-21 21:43:00,27.0,21.0,29.03,East,89,3.1,3.1,78,0.00,,,0.00,VWS V14.01,2013-03-22 01:43:00,
2013-03-21 21:45:00,26.6,20.7,29.03,East,89,3.1,3.1,78,0.00,,,0.00,VWS V14.01,2013-03-22 01:45:00,
2013-03-21 21:49:00,26.6,20.7,29.03,ENE,61,2.7,2.7,78,0.00,,,0.00,VWS V14.01,2013-03-22 01:49:00,
2013-03-21 21:50:00,26.6,20.7,29.03,ENE,61,2.7,2.7,78,0.00,,,0.00,VWS V14.01,2013-03-22 01:50:00,
2013-03-21 21:51:00,26.6,20.7,29.03,ENE,61,3.6,3.6,78,0.00,,,0.00,VWS V14.01,2013-03-22 01:51:00,
2013-03-21 21:54:00,26.6,20.7,29.03,ENE,61,0.0,0.0,78,0.00,,,0.00,VWS V14.01,2013-03-22 01:54:00,
2013-03-21 21:55:00,26.6,20.7,29.03,ENE,61,0.0,0.0,78,0.00,,,0.00,VWS V14.01,2013-03-22 01:55:00,
2013-03-21 21:56:00,26.6,20.7,29.03,ENE,61,0.0,0.0,78,0.00,,,0.00,VWS V14.01,2013-03-22 01:56:00,
2013-03-21 21:59:00,26.6,20.7,29.03,ENE,61,0.0,0.0,78,0.00,,,0.00,VWS V14.01,2013-03-22 01:59:00,
2013-03-21 22:00:00,26.6,20.7,29.03,ENE,61,0.0,0.0,78,0.00,,,0.00,VWS V14.01,2013-03-22 02:00:00,
2013-03-21 22:01:00,26.6,20.7,29.03,ENE,61,2.7,2.7,78,0.00,,,0.00,VWS V14.01,2013-03-22 02:01:00,
2013-03-21 22:02:00,26.4,20.5,29.03,ENE,61,2.7,2.7,78,0.00,,,0.00,VWS V14.01,2013-03-22 02:02:00,
2013-03-21 22:04:00,26.4,20.5,29.03,ENE,61,2.7,2.7,78,0.00,,,0.00,VWS V14.01,2013-03-22 02:04:00,
2013-03-21 22:05:00,26.4,20.5,29.03,ENE,61,2.7,2.7,78,0.00,,,0.00,VWS V14.01,2013-03-22 02:05:00,
2013-03-21 22:06:00,26.4,20.5,29.03,ENE,61,2.7,2.7,78,0.00,,,0.00,VWS V14.01,2013-03-22 02:06:00,
2013-03-21 22:07:00,26.4,20.5,29.03,ENE,61,0.0,2.7,78,0.00,,,0.00,VWS V14.01,2013-03-22 02:07:00,
2013-03-21 22:09:00,26.4,20.5,29.03,ENE,61,0.0,0.0,78,0.00,,,0.00,VWS V14.01,2013-03-22 02:09:00,
2013-03-21 22:10:00,26.4,20.5,29.03,ENE,61,2.2,2.2,78,0.00,,,0.00,VWS V14.01,2013-03-22 02:10:00,
2013-03-21 22:11:00,26.1,20.1,29.03,ENE,61,2.2,2.2,78,0.00,,,0.00,VWS V14.01,2013-03-22 02:11:00,
2013-03-21 22:12:00,26.1,20.1,29.03,ENE,61,0.0,0.0,78,0.00,,,0.00,VWS V14.01,2013-03-22 02:12:00,
2013-03-21 22:14:00,26.1,20.1,29.03,ENE,61,0.0,0.0,78,0.00,,,0.00,VWS V14.01,2013-03-22 02:14:00,
2013-03-21 22:15:00,26.1,20.1,29.03,ENE,61,0.0,0.0,78,0.00,,,0.00,VWS V14.01,2013-03-22 02:15:00,
2013-03-21 22:16:00,26.1,20.1,29.03,ENE,61,0.0,0.0,78,0.00,,,0.00,VWS V14.01,2013-03-22 02:16:00,
2013-03-21 22:18:00,26.1,20.1,29.03,ENE,61,0.0,0.0,78,0.00,,,0.00,VWS V14.01,2013-03-22 02:18:00,
2013-03-21 22:19:00,25.9,20.0,29.03,ENE,61,0.0,0.0,78,0.00,,,0.00,VWS V14.01,2013-03-22 02:19:00,
2013-03-21 22:20:00,25.9,20.0,29.03,ENE,61,0.0,0.0,78,0.00,,,0.00,VWS V14.01,2013-03-22 02:20:00,
2013-03-21 22:21:00,25.7,19.8,29.03,ENE,61,2.7,2.7,78,0.00,,,0.00,VWS V14.01,2013-03-22 02:21:00,
2013-03-21 22:23:00,25.7,19.8,29.03,ENE,61,0.0,0.0,78,0.00,,,0.00,VWS V14.01,2013-03-22 02:23:00,
2013-03-21 22:24:00,25.7,19.8,29.03,ENE,61,2.7,2.7,78,0.00,,,0.00,VWS V14.01,2013-03-22 02:24:00,
2013-03-21 22:25:00,25.7,19.8,29.03,ENE,61,2.2,2.2,78,0.00,,,0.00,VWS V14.01,2013-03-22 02:25:00,
2013-03-21 22:26:00,25.7,19.8,29.03,ENE,61,2.2,2.2,78,0.00,,,0.00,VWS V14.01,2013-03-22 02:26:00,
2013-03-21 22:28:00,25.7,19.8,29.03,ENE,61,0.0,2.2,78,0.00,,,0.00,VWS V14.01,2013-03-22 02:28:00,
2013-03-21 22:29:00,25.7,19.8,29.03,ENE,61,0.0,0.0,78,0.00,,,0.00,VWS V14.01,2013-03-22 02:29:00,
2013-03-21 22:30:00,25.5,19.6,29.03,ENE,61,0.0,0.0,78,0.00,,,0.00,VWS V14.01,2013-03-22 02:30:00,
2013-03-21 22:32:00,25.5,19.6,29.03,ENE,61,0.0,0.0,78,0.00,,,0.00,VWS V14.01,2013-03-22 02:32:00,
2013-03-21 22:33:00,25.5,19.6,29.03,ENE,61,2.7,2.7,78,0.00,,,0.00,VWS V14.01,2013-03-22 02:33:00,
2013-03-21 22:34:00,25.5,19.6,29.03,ENE,61,2.7,2.7,78,0.00,,,0.00,VWS V14.01,2013-03-22 02:34:00,
2013-03-21 22:35:00,25.5,19.6,29.03,ENE,61,2.7,2.7,78,0.00,,,0.00,VWS V14.01,2013-03-22 02:35:00,
2013-03-21 22:37:00,25.5,19.6,29.03,ENE,61,2.7,2.7,78,0.00,,,0.00,VWS V14.01,2013-03-22 02:37:00,
2013-03-21 22:38:00,25.5,19.6,29.03,NE,54,3.1,3.1,78,0.00,,,0.00,VWS V14.01,2013-03-22 02:38:00,
2013-03-21 22:39:00,25.5,19.6,29.03,NE,54,3.1,3.1,78,0.00,,,0.00,VWS V14.01,2013-03-22 02:39:00,
2013-03-21 22:40:00,25.5,19.6,29.03,NE,54,3.1,3.1,78,0.00,,,0.00,VWS V14.01,2013-03-22 02:40:00,
2013-03-21 22:42:00,25.5,19.6,29.03,NE,54,3.1,3.1,78,0.00,,,0.00,VWS V14.01,2013-03-22 02:42:00,
2013-03-21 22:43:00,25.5,19.6,29.03,NE,56,2.7,2.7,78,0.00,,,0.00,VWS V14.01,2013-03-22 02:43:00,
2013-03-21 22:45:00,25.5,19.6,29.03,NE,56,2.7,2.7,78,0.00,,,0.00,VWS V14.01,2013-03-22 02:45:00,
2013-03-21 22:47:00,25.5,19.6,29.03,NE,56,2.7,2.7,78,0.00,,,0.00,VWS V14.01,2013-03-22 02:47:00,
2013-03-21 22:48:00,25.5,19.6,29.03,NE,56,0.0,2.7,78,0.00,,,0.00,VWS V14.01,2013-03-22 02:48:00,
2013-03-21 22:50:00,25.5,19.6,29.03,NE,56,3.1,3.1,78,0.00,,,0.00,VWS V14.01,2013-03-22 02:50:00,
2013-03-21 22:52:00,25.5,19.6,29.03,NE,56,3.1,3.1,78,0.00,,,0.00,VWS V14.01,2013-03-22 02:52:00,
2013-03-21 22:54:00,25.5,19.6,29.03,NE,56,3.1,3.1,78,0.00,,,0.00,VWS V14.01,2013-03-22 02:54:00,
2013-03-21 22:55:00,25.5,19.6,29.03,NE,56,3.1,3.1,78,0.00,,,0.00,VWS V14.01,2013-03-22 02:55:00,
2013-03-21 22:56:00,25.5,19.6,29.03,NE,56,3.1,3.1,78,0.00,,,0.00,VWS V14.01,2013-03-22 02:56:00,
2013-03-21 22:57:00,25.5,19.6,29.03,NE,56,0.0,3.1,78,0.00,,,0.00,VWS V14.01,2013-03-22 02:57:00,
2013-03-21 22:59:00,25.5,19.6,29.03,NE,56,0.0,0.0,78,0.00,,,0.00,VWS V14.01,2013-03-22 02:59:00,
2013-03-21 23:00:00,25.5,19.6,29.03,NE,56,0.0,0.0,78,0.00,,,0.00,VWS V14.01,2013-03-22 03:00:00,
2013-03-21 23:01:00,25.5,19.6,29.03,NE,56,0.0,0.0,78,0.00,,,0.00,VWS V14.01,2013-03-22 03:01:00,
2013-03-21 23:02:00,25.5,19.6,29.03,NE,56,0.0,0.0,78,0.00,,,0.00,VWS V14.01,2013-03-22 03:02:00,
2013-03-21 23:04:00,25.3,19.5,29.03,NE,56,3.1,3.1,78,0.00,,,0.00,VWS V14.01,2013-03-22 03:04:00,
2013-03-21 23:05:00,25.3,19.5,29.03,ENE,57,3.6,3.6,78,0.00,,,0.00,VWS V14.01,2013-03-22 03:05:00,
2013-03-21 23:06:00,25.3,19.5,29.03,ENE,57,3.6,3.6,78,0.00,,,0.00,VWS V14.01,2013-03-22 03:06:00,
2013-03-21 23:07:00,25.3,19.5,29.06,ENE,57,3.6,3.6,78,0.00,,,0.00,VWS V14.01,2013-03-22 03:07:00,
2013-03-21 23:09:00,25.3,19.5,29.06,ENE,57,3.6,3.6,78,0.00,,,0.00,VWS V14.01,2013-03-22 03:09:00,
2013-03-21 23:10:00,25.3,19.5,29.06,ENE,57,3.1,3.6,78,0.00,,,0.00,VWS V14.01,2013-03-22 03:10:00,
2013-03-21 23:11:00,25.3,19.5,29.06,ENE,57,3.1,3.1,78,0.00,,,0.00,VWS V14.01,2013-03-22 03:11:00,
2013-03-21 23:12:00,25.3,19.5,29.06,ENE,57,3.1,3.1,78,0.00,,,0.00,VWS V14.01,2013-03-22 03:12:00,
2013-03-21 23:14:00,25.2,19.3,29.06,ENE,57,0.0,0.0,78,0.00,,,0.00,VWS V14.01,2013-03-22 03:14:00,
2013-03-21 23:15:00,25.2,19.3,29.06,ENE,57,0.0,0.0,78,0.00,,,0.00,VWS V14.01,2013-03-22 03:15:00,
2013-03-21 23:16:00,25.2,19.3,29.06,ENE,57,3.6,3.6,78,0.00,,,0.00,VWS V14.01,2013-03-22 03:16:00,
2013-03-21 23:17:00,25.2,19.3,29.06,ENE,57,0.0,3.6,78,0.00,,,0.00,VWS V14.01,2013-03-22 03:17:00,
2013-03-21 23:19:00,25.2,19.3,29.06,ENE,57,2.2,2.2,78,0.00,,,0.00,VWS V14.01,2013-03-22 03:19:00,
2013-03-21 23:20:00,25.2,19.3,29.06,ENE,57,2.2,2.2,78,0.00,,,0.00,VWS V14.01,2013-03-22 03:20:00,
2013-03-21 23:21:00,25.0,19.1,29.06,ENE,57,2.2,2.2,78,0.00,,,0.00,VWS V14.01,2013-03-22 03:21:00,
2013-03-21 23:23:00,25.0,19.1,29.06,ENE,57,2.2,2.2,78,0.00,,,0.00,VWS V14.01,2013-03-22 03:23:00,
2013-03-21 23:24:00,25.0,19.1,29.06,ENE,57,0.0,2.2,78,0.00,,,0.00,VWS V14.01,2013-03-22 03:24:00,
2013-03-21 23:25:00,25.0,19.1,29.06,ENE,57,0.0,0.0,78,0.00,,,0.00,VWS V14.01,2013-03-22 03:25:00,
2013-03-21 23:27:00,25.0,19.1,29.06,ENE,57,3.6,3.6,78,0.00,,,0.00,VWS V14.01,2013-03-22 03:27:00,
2013-03-21 23:28:00,25.0,19.1,29.06,ENE,57,3.6,3.6,78,0.00,,,0.00,VWS V14.01,2013-03-22 03:28:00,
2013-03-21 23:29:00,25.0,19.1,29.06,ENE,57,0.0,3.6,78,0.00,,,0.00,VWS V14.01,2013-03-22 03:29:00,
2013-03-21 23:30:00,25.0,19.1,29.06,ENE,57,0.0,0.0,78,0.00,,,0.00,VWS V14.01,2013-03-22 03:30:00,
2013-03-21 23:32:00,25.0,19.1,29.06,ENE,57,2.2,2.2,78,0.00,,,0.00,VWS V14.01,2013-03-22 03:32:00,
2013-03-21 23:33:00,25.0,19.1,29.06,ENE,57,2.2,2.2,78,0.00,,,0.00,VWS V14.01,2013-03-22 03:33:00,
2013-03-21 23:34:00,25.0,19.1,29.06,ENE,57,2.2,2.2,78,0.00,,,0.00,VWS V14.01,2013-03-22 03:34:00,
2013-03-21 23:35:00,25.0,19.1,29.06,ENE,57,2.2,2.2,78,0.00,,,0.00,VWS V14.01,2013-03-22 03:35:00,
2013-03-21 23:37:00,25.0,19.1,29.06,ENE,57,2.2,2.2,78,0.00,,,0.00,VWS V14.01,2013-03-22 03:37:00,
2013-03-21 23:38:00,25.0,19.1,29.06,ENE,57,2.2,2.2,78,0.00,,,0.00,VWS V14.01,2013-03-22 03:38:00,
2013-03-21 23:39:00,25.0,19.1,29.06,ENE,57,0.0,2.2,78,0.00,,,0.00,VWS V14.01,2013-03-22 03:39:00,
2013-03-21 23:41:00,25.0,19.1,29.06,ENE,57,0.0,0.0,78,0.00,,,0.00,VWS V14.01,2013-03-22 03:41:00,
2013-03-21 23:42:00,24.8,19.2,29.06,ENE,57,0.0,0.0,79,0.00,,,0.00,VWS V14.01,2013-03-22 03:42:00,
2013-03-21 23:43:00,24.8,19.2,29.06,ENE,57,0.0,0.0,79,0.00,,,0.00,VWS V14.01,2013-03-22 03:43:00,
2013-03-21 23:45:00,24.8,19.2,29.06,ENE,57,0.0,0.0,79,0.00,,,0.00,VWS V14.01,2013-03-22 03:45:00,
2013-03-21 23:46:00,24.8,19.2,29.06,ENE,57,0.0,0.0,79,0.00,,,0.00,VWS V14.01,2013-03-22 03:46:00,
2013-03-21 23:47:00,24.6,19.0,29.06,ENE,57,0.0,0.0,79,0.00,,,0.00,VWS V14.01,2013-03-22 03:47:00,
2013-03-21 23:48:00,24.6,19.0,29.06,ENE,57,0.0,0.0,79,0.00,,,0.00,VWS V14.01,2013-03-22 03:48:00,
2013-03-21 23:50:00,24.6,19.0,29.06,ENE,57,0.0,0.0,79,0.00,,,0.00,VWS V14.01,2013-03-22 03:50:00,
2013-03-21 23:51:00,24.6,19.0,29.06,ENE,57,0.0,0.0,79,0.00,,,0.00,VWS V14.01,2013-03-22 03:51:00,
2013-03-21 23:52:00,24.6,19.0,29.06,ENE,57,0.0,0.0,79,0.00,,,0.00,VWS V14.01,2013-03-22 03:52:00,
2013-03-21 23:53:00,24.6,19.0,29.06,ENE,57,0.0,0.0,79,0.00,,,0.00,VWS V14.01,2013-03-22 03:53:00,
2013-03-21 23:55:00,24.4,18.9,29.06,ENE,57,0.0,0.0,79,0.00,,,0.00,VWS V14.01,2013-03-22 03:55:00,
2013-03-21 23:56:00,24.4,18.9,29.06,ENE,57,0.0,0.0,79,0.00,,,0.00,VWS V14.01,2013-03-22 03:56:00,
2013-03-21 23:58:00,24.4,18.9,29.06,ENE,57,3.1,3.1,79,0.00,,,0.00,VWS V14.01,2013-03-22 03:58:00,
2013-03-21 23:59:00,24.4,18.9,29.06,ENE,57,3.1,3.1,79,0.00,,,0.00,VWS V14.01,2013-03-22 03:59:00,